Observation data for Welch on 10/13/2019      Previous  Date       Current Mesonet Observations  Soil Data  Daily Summary Page  Observations in Plain Language
KWE2 130500Z 20011KT 13/M01 A3002 RMK A01 T01261010  RH  039%=      5-min Rain = 0
KWE2 130501Z 20011KT 13/M01 A3002 RMK A01 T01261011  RH  039%=      5-min Rain = 0
KWE2 130502Z 20011KT 13/M01 A3002 RMK A01 T01261011  RH  039%=      5-min Rain = 0
KWE2 130503Z 20010KT 13/M01 A3002 RMK A01 T01261010  RH  039%=      5-min Rain = 0
KWE2 130504Z 20010KT 13/M01 A3002 RMK A01 T01261011  RH  039%=      5-min Rain = 0
KWE2 130505Z 20010KT 13/M01 A3002 RMK A01 T01261011  RH  039%=      5-min Rain = 0
KWE2 130506Z 21010KT 13/M01 A3002 RMK A01 T01261011  RH  039%=      5-min Rain = 0
KWE2 130507Z 20012KT 13/M01 A3002 RMK A01 T01261011  RH  039%=      5-min Rain = 0
KWE2 130508Z 20010KT 13/M01 A3002 RMK A01 T01261011  RH  039%=      5-min Rain = 0
KWE2 130509Z 20010KT 13/M01 A3002 RMK A01 T01261011  RH  039%=      5-min Rain = 0
KWE2 130510Z 20010KT 13/M01 A3002 RMK A01 T01261011  RH  039%=      5-min Rain = 0
KWE2 130511Z 21010KT 13/M01 A3002 RMK A01 T01261011  RH  039%=      5-min Rain = 0
KWE2 130512Z 20009KT 13/M01 A3002 RMK A01 T01261011  RH  039%=      5-min Rain = 0
KWE2 130513Z 21009KT 13/M01 A3002 RMK A01 T01261011  RH  039%=      5-min Rain = 0
KWE2 130514Z 20009KT 13/M01 A3002 RMK A01 T01261011  RH  039%=      5-min Rain = 0
KWE2 130515Z 20010KT 13/M01 A3002 RMK A01 T01261011  RH  039%=      5-min Rain = 0
KWE2 130516Z 21010KT 13/M01 A3002 RMK A01 T01261011  RH  039%=      5-min Rain = 0
KWE2 130517Z 20009KT 13/M01 A3002 RMK A01 T01261012  RH  039%=      5-min Rain = 0
KWE2 130518Z 20008KT 13/M01 A3002 RMK A01 T01261011  RH  039%=      5-min Rain = 0
KWE2 130519Z 20009KT 13/M01 A3002 RMK A01 T01251011  RH  039%=      5-min Rain = 0
KWE2 130520Z 21009KT 13/M01 A3002 RMK A01 T01251011  RH  039%=      5-min Rain = 0
KWE2 130521Z 21009KT 13/M01 A3002 RMK A01 T01251012  RH  039%=      5-min Rain = 0
KWE2 130522Z 20009KT 13/M01 A3002 RMK A01 T01251012  RH  039%=      5-min Rain = 0
KWE2 130523Z 20009KT 13/M01 A3002 RMK A01 T01251012  RH  039%=      5-min Rain = 0
KWE2 130524Z 21009KT 13/M01 A3002 RMK A01 T01251012  RH  039%=      5-min Rain = 0
KWE2 130525Z 20009KT 13/M01 A3002 RMK A01 T01261012  RH  038%=      5-min Rain = 0
KWE2 130526Z 20009KT 13/M01 A3002 RMK A01 T01251012  RH  038%=      5-min Rain = 0
KWE2 130527Z 21009KT 13/M01 A3002 RMK A01 T01251012  RH  038%=      5-min Rain = 0
KWE2 130528Z 20009KT 13/M01 A3002 RMK A01 T01261012  RH  038%=      5-min Rain = 0
KWE2 130529Z 21009KT 13/M01 A3001 RMK A01 T01261013  RH  038%=      5-min Rain = 0
KWE2 130530Z 20009KT 13/M01 A3001 RMK A01 T01261012  RH  038%=      5-min Rain = 0
KWE2 130531Z 20009KT 13/M01 A3001 RMK A01 T01261012  RH  038%=      5-min Rain = 0
KWE2 130532Z 20009KT 13/M01 A3001 RMK A01 T01261012  RH  038%=      5-min Rain = 0
KWE2 130533Z 21009KT 13/M01 A3001 RMK A01 T01261012  RH  038%=      5-min Rain = 0
KWE2 130534Z 21009KT 13/M01 A3001 RMK A01 T01261012  RH  038%=      5-min Rain = 0
KWE2 130535Z 21010KT 13/M01 A3001 RMK A01 T01261012  RH  038%=      5-min Rain = 0
KWE2 130536Z 21009KT 13/M01 A3001 RMK A01 T01261012  RH  038%=      5-min Rain = 0
KWE2 130537Z 21010KT 13/M01 A3001 RMK A01 T01261012  RH  038%=      5-min Rain = 0
KWE2 130538Z 21010KT 13/M01 A3001 RMK A01 T01261012  RH  038%=      5-min Rain = 0
KWE2 130539Z 21008KT 13/M01 A3001 RMK A01 T01261012  RH  039%=      5-min Rain = 0
KWE2 130540Z 21010KT 13/M01 A3001 RMK A01 T01251012  RH  039%=      5-min Rain = 0
KWE2 130541Z 21009KT 13/M01 A3001 RMK A01 T01251012  RH  039%=      5-min Rain = 0
KWE2 130542Z 21008KT 13/M01 A3001 RMK A01 T01251012  RH  039%=      5-min Rain = 0
KWE2 130543Z 21009KT 12/M01 A3001 RMK A01 T01241012  RH  039%=      5-min Rain = 0
KWE2 130544Z 20009KT 12/M01 A3001 RMK A01 T01231012  RH  039%=      5-min Rain = 0
KWE2 130545Z 20008KT 12/M01 A3001 RMK A01 T01231012  RH  039%=      5-min Rain = 0
KWE2 130546Z 20009KT 12/M01 A3001 RMK A01 T01221011  RH  040%=      5-min Rain = 0
KWE2 130547Z 21008KT 12/M01 A3001 RMK A01 T01221012  RH  040%=      5-min Rain = 0
KWE2 130548Z 20008KT 12/M01 A3001 RMK A01 T01221011  RH  040%=      5-min Rain = 0
KWE2 130549Z 20009KT 12/M01 A3001 RMK A01 T01211011  RH  040%=      5-min Rain = 0
KWE2 130550Z 20008KT 12/M01 A3001 RMK A01 T01211012  RH  040%=      5-min Rain = 0
KWE2 130551Z 20009KT 12/M01 A3001 RMK A01 T01211012  RH  040%=      5-min Rain = 0
KWE2 130552Z 20008KT 12/M01 A3001 RMK A01 T01211012  RH  040%=      5-min Rain = 0
KWE2 130553Z 21007KT 12/M01 A3001 RMK A01 T01211012  RH  040%=      5-min Rain = 0
KWE2 130554Z 20007KT 12/M01 A3001 RMK A01 T01211011  RH  040%=      5-min Rain = 0
KWE2 130555Z 21008KT 12/M01 A3001 RMK A01 T01201011  RH  040%=      5-min Rain = 0
KWE2 130556Z 21007KT 12/M01 A3001 RMK A01 T01201012  RH  040%=      5-min Rain = 0
KWE2 130557Z 21006KT 12/M01 A3001 RMK A01 T01201011  RH  040%=      5-min Rain = 0
KWE2 130558Z 20007KT 12/M01 A3001 RMK A01 T01191011  RH  040%=      5-min Rain = 0
KWE2 130559Z 20006KT 12/M01 A3001 RMK A01 T01191011  RH  040%=      5-min Rain = 0
KWE2 130600Z 21007KT 12/M01 A3001 RMK A01 T01191011  RH  040%=      5-min Rain = 0
KWE2 130601Z 20007KT 12/M01 A3001 RMK A01 T01191012  RH  040%=      5-min Rain = 0
KWE2 130602Z 21008KT 12/M01 A3001 RMK A01 T01191011  RH  040%=      5-min Rain = 0
KWE2 130603Z 21007KT 12/M01 A3001 RMK A01 T01181011  RH  041%=      5-min Rain = 0
KWE2 130604Z 21007KT 12/M01 A3001 RMK A01 T01181011  RH  041%=      5-min Rain = 0
KWE2 130605Z 21007KT 12/M01 A3001 RMK A01 T01181012  RH  041%=      5-min Rain = 0
KWE2 130606Z 21006KT 12/M01 A3001 RMK A01 T01181011  RH  041%=      5-min Rain = 0
KWE2 130607Z 22007KT 12/M01 A3001 RMK A01 T01171011  RH  041%=      5-min Rain = 0
KWE2 130608Z 22007KT 12/M01 A3001 RMK A01 T01171011  RH  041%=      5-min Rain = 0
KWE2 130609Z 22006KT 12/M01 A3001 RMK A01 T01171011  RH  041%=      5-min Rain = 0
KWE2 130610Z 22006KT 12/M01 A3001 RMK A01 T01161010  RH  042%=      5-min Rain = 0
KWE2 130611Z 22005KT 12/M01 A3001 RMK A01 T01151010  RH  042%=      5-min Rain = 0
KWE2 130612Z 22006KT 11/M01 A3001 RMK A01 T01141010  RH  042%=      5-min Rain = 0
KWE2 130613Z 22006KT 11/M01 A3001 RMK A01 T01141010  RH  042%=      5-min Rain = 0
KWE2 130614Z 22006KT 11/M01 A3001 RMK A01 T01131010  RH  042%=      5-min Rain = 0
KWE2 130615Z 23005KT 11/M01 A3001 RMK A01 T01131010  RH  043%=      5-min Rain = 0
KWE2 130616Z 23005KT 11/M01 A3001 RMK A01 T01121009  RH  043%=      5-min Rain = 0
KWE2 130617Z 23005KT 11/M01 A3001 RMK A01 T01121009  RH  043%=      5-min Rain = 0
KWE2 130618Z 23005KT 11/M01 A3001 RMK A01 T01101009  RH  044%=      5-min Rain = 0
KWE2 130619Z 23005KT 11/M01 A3001 RMK A01 T01101009  RH  044%=      5-min Rain = 0
KWE2 130620Z 23005KT 11/M01 A3001 RMK A01 T01091009  RH  044%=      5-min Rain = 0
KWE2 130621Z 23005KT 11/M01 A3001 RMK A01 T01081008  RH  044%=      5-min Rain = 0
KWE2 130622Z 23005KT 11/M01 A3001 RMK A01 T01071008  RH  045%=      5-min Rain = 0
KWE2 130623Z 23005KT 11/M01 A3001 RMK A01 T01061008  RH  045%=      5-min Rain = 0
KWE2 130624Z 23005KT 11/M01 A3001 RMK A01 T01051008  RH  046%=      5-min Rain = 0
KWE2 130625Z 23006KT 10/M01 A3001 RMK A01 T01041007  RH  046%=      5-min Rain = 0
KWE2 130626Z 23005KT 10/M01 A30 RMK A01 T01031007  RH  046%=      5-min Rain = 0
KWE2 130627Z 23005KT 10/M01 A30 RMK A01 T01021007  RH  047%=      5-min Rain = 0
KWE2 130628Z 23005KT 10/M01 A30 RMK A01 T01011006  RH  047%=      5-min Rain = 0
KWE2 130629Z 23006KT 10/M01 A30 RMK A01 T01001006  RH  048%=      5-min Rain = 0
KWE2 130630Z 22006KT 10/M01 A30 RMK A01 T00991006  RH  048%=      5-min Rain = 0
KWE2 130631Z 22006KT 10/M01 A30 RMK A01 T00981006  RH  048%=      5-min Rain = 0
KWE2 130632Z 22006KT 10/M01 A30 RMK A01 T00971006  RH  049%=      5-min Rain = 0
KWE2 130633Z 22006KT 10/M01 A30 RMK A01 T00961006  RH  049%=      5-min Rain = 0
KWE2 130634Z 22006KT 10/M01 A30 RMK A01 T00961006  RH  049%=      5-min Rain = 0
KWE2 130635Z 22005KT 10/M01 A30 RMK A01 T00951006  RH  049%=      5-min Rain = 0
KWE2 130636Z 22005KT 10/M01 A30 RMK A01 T00951005  RH  050%=      5-min Rain = 0
KWE2 130637Z 22005KT 09/M01 A30 RMK A01 T00941005  RH  050%=      5-min Rain = 0
KWE2 130638Z 22005KT 09/M01 A30 RMK A01 T00931005  RH  050%=      5-min Rain = 0
KWE2 130639Z 22005KT 09/M01 A30 RMK A01 T00931005  RH  050%=      5-min Rain = 0
KWE2 130640Z 22005KT 09/M01 A30 RMK A01 T00921005  RH  050%=      5-min Rain = 0
KWE2 130641Z 22005KT 09/M01 A30 RMK A01 T00921005  RH  051%=      5-min Rain = 0
KWE2 130642Z 23005KT 09/M01 A30 RMK A01 T00911005  RH  051%=      5-min Rain = 0
KWE2 130643Z 23005KT 09/M01 A30 RMK A01 T00911005  RH  051%=      5-min Rain = 0
KWE2 130644Z 23005KT 09/M01 A30 RMK A01 T00901005  RH  051%=      5-min Rain = 0
KWE2 130645Z 23004KT 09/M01 A30 RMK A01 T00901005  RH  052%=      5-min Rain = 0
KWE2 130646Z 23004KT 09/M00 A30 RMK A01 T00891004  RH  052%=      5-min Rain = 0
KWE2 130647Z 23004KT 09/M00 A30 RMK A01 T00891004  RH  052%=      5-min Rain = 0
KWE2 130648Z 24004KT 09/M00 A30 RMK A01 T00881004  RH  052%=      5-min Rain = 0
KWE2 130649Z 24004KT 09/M00 A30 RMK A01 T00881004  RH  053%=      5-min Rain = 0
KWE2 130650Z 23004KT 09/M00 A30 RMK A01 T00871004  RH  053%=      5-min Rain = 0
KWE2 130651Z 23004KT 09/M00 A30 RMK A01 T00871004  RH  053%=      5-min Rain = 0
KWE2 130652Z 22005KT 09/M00 A30 RMK A01 T00871003  RH  053%=      5-min Rain = 0
KWE2 130653Z 22005KT 09/M00 A30 RMK A01 T00861003  RH  053%=      5-min Rain = 0
KWE2 130654Z 22006KT 09/M00 A30 RMK A01 T00851003  RH  054%=      5-min Rain = 0
KWE2 130655Z 22006KT 09/M00 A30 RMK A01 T00851004  RH  054%=      5-min Rain = 0
KWE2 130656Z 22006KT 08/M00 A30 RMK A01 T00831004  RH  054%=      5-min Rain = 0
KWE2 130657Z 22006KT 08/M00 A30 RMK A01 T00821004  RH  054%=      5-min Rain = 0
KWE2 130658Z 22006KT 08/M00 A30 RMK A01 T00821004  RH  055%=      5-min Rain = 0
KWE2 130659Z 22007KT 08/M00 A30 RMK A01 T00811004  RH  055%=      5-min Rain = 0
KWE2 130700Z 22007KT 08/M00 A30 RMK A01 T00821004  RH  055%=      5-min Rain = 0
KWE2 130701Z 22007KT 08/M00 A30 RMK A01 T00821004  RH  055%=      5-min Rain = 0
KWE2 130702Z 22007KT 08/M00 A30 RMK A01 T00821004  RH  055%=      5-min Rain = 0
KWE2 130703Z 22007KT 08/M00 A30 RMK A01 T00821004  RH  054%=      5-min Rain = 0
KWE2 130704Z 22007KT 08/M00 A30 RMK A01 T00831004  RH  054%=      5-min Rain = 0
KWE2 130705Z 22007KT 08/M01 A30 RMK A01 T00831005  RH  054%=      5-min Rain = 0
KWE2 130706Z 22006KT 08/M01 A30 RMK A01 T00831005  RH  054%=      5-min Rain = 0
KWE2 130707Z 22006KT 08/M01 A30 RMK A01 T00841005  RH  054%=      5-min Rain = 0
KWE2 130708Z 22006KT 09/M01 A30 RMK A01 T00851005  RH  053%=      5-min Rain = 0
KWE2 130709Z 22005KT 09/M01 A30 RMK A01 T00851005  RH  053%=      5-min Rain = 0
KWE2 130710Z 22005KT 09/M01 A30 RMK A01 T00851005  RH  053%=      5-min Rain = 0
KWE2 130711Z 22005KT 09/M01 A30 RMK A01 T00851005  RH  053%=      5-min Rain = 0
KWE2 130712Z 22005KT 09/M01 A30 RMK A01 T00851005  RH  053%=      5-min Rain = 0
KWE2 130713Z 22005KT 09/M00 A30 RMK A01 T00851004  RH  054%=      5-min Rain = 0
KWE2 130714Z 22005KT 08/M00 A30 RMK A01 T00841004  RH  054%=      5-min Rain = 0
KWE2 130715Z 22005KT 08/M00 A30 RMK A01 T00841004  RH  054%=      5-min Rain = 0
KWE2 130716Z 22005KT 08/M01 A30 RMK A01 T00831005  RH  054%=      5-min Rain = 0
KWE2 130717Z 22005KT 08/M00 A30 RMK A01 T00821004  RH  054%=      5-min Rain = 0
KWE2 130718Z 22006KT 08/M01 A30 RMK A01 T00811005  RH  055%=      5-min Rain = 0
KWE2 130719Z 22006KT 08/M00 A30 RMK A01 T00801004  RH  055%=      5-min Rain = 0
KWE2 130720Z 22006KT 08/M00 A30 RMK A01 T00801004  RH  055%=      5-min Rain = 0
KWE2 130721Z 22006KT 08/M00 A30 RMK A01 T00791004  RH  056%=      5-min Rain = 0
KWE2 130722Z 22006KT 08/M00 A30 RMK A01 T00791004  RH  056%=      5-min Rain = 0
KWE2 130723Z 22006KT 08/M00 A30 RMK A01 T00791004  RH  056%=      5-min Rain = 0
KWE2 130724Z 22006KT 08/M00 A30 RMK A01 T00791004  RH  056%=      5-min Rain = 0
KWE2 130725Z 23005KT 08/M00 A30 RMK A01 T00791004  RH  056%=      5-min Rain = 0
KWE2 130726Z 23005KT 08/M00 A30 RMK A01 T00791004  RH  056%=      5-min Rain = 0
KWE2 130727Z 23005KT 08/M00 A30 RMK A01 T00801004  RH  056%=      5-min Rain = 0
KWE2 130728Z 23004KT 08/M00 A30 RMK A01 T00791004  RH  055%=      5-min Rain = 0
KWE2 130729Z 23004KT 08/M00 A30 RMK A01 T00801004  RH  055%=      5-min Rain = 0
KWE2 130730Z 24004KT 08/M00 A30 RMK A01 T00801004  RH  055%=      5-min Rain = 0
KWE2 130731Z 24003KT 08/M00 A30 RMK A01 T00801004  RH  055%=      5-min Rain = 0
KWE2 130732Z 24003KT 08/M00 A30 RMK A01 T00801004  RH  056%=      5-min Rain = 0
KWE2 130733Z 23003KT 08/M00 A30 RMK A01 T00801003  RH  056%=      5-min Rain = 0
KWE2 130734Z 23003KT 08/M00 A30 RMK A01 T00791003  RH  056%=      5-min Rain = 0
KWE2 130735Z 23003KT 08/M00 A30 RMK A01 T00791003  RH  056%=      5-min Rain = 0
KWE2 130736Z 23004KT 08/M00 A30 RMK A01 T00781003  RH  057%=      5-min Rain = 0
KWE2 130737Z 24004KT 08/M00 A30 RMK A01 T00781002  RH  057%=      5-min Rain = 0
KWE2 130738Z 24003KT 08/M00 A30 RMK A01 T00771002  RH  057%=      5-min Rain = 0
KWE2 130739Z 26003KT 08/M00 A30 RMK A01 T00761001  RH  058%=      5-min Rain = 0
KWE2 130740Z 27003KT 08/M00 A30 RMK A01 T00761001  RH  058%=      5-min Rain = 0
KWE2 130741Z 28003KT 08/00 A30 RMK A01 T00750000  RH  059%=      5-min Rain = 0
KWE2 130742Z 28004KT 07/00 A30 RMK A01 T00740000  RH  059%=      5-min Rain = 0
KWE2 130743Z 28004KT 07/00 A30 RMK A01 T00730000  RH  060%=      5-min Rain = 0
KWE2 130744Z 27004KT 07/00 A30 RMK A01 T00720000  RH  060%=      5-min Rain = 0
KWE2 130745Z 27004KT 07/00 A30 RMK A01 T00720000  RH  060%=      5-min Rain = 0
KWE2 130746Z 26004KT 07/00 A30 RMK A01 T00720001  RH  061%=      5-min Rain = 0
KWE2 130747Z 26004KT 07/00 A30 RMK A01 T00710001  RH  061%=      5-min Rain = 0
KWE2 130748Z 25004KT 07/00 A30 RMK A01 T00710001  RH  061%=      5-min Rain = 0
KWE2 130749Z 25004KT 07/00 A30 RMK A01 T00720001  RH  061%=      5-min Rain = 0
KWE2 130750Z 25005KT 07/00 A30 RMK A01 T00720001  RH  061%=      5-min Rain = 0
KWE2 130751Z 25005KT 07/00 A30 RMK A01 T00720001  RH  061%=      5-min Rain = 0
KWE2 130752Z 25005KT 07/00 A30 RMK A01 T00720001  RH  061%=      5-min Rain = 0
KWE2 130753Z 25005KT 07/00 A30 RMK A01 T00720001  RH  060%=      5-min Rain = 0
KWE2 130754Z 25005KT 07/00 A30 RMK A01 T00720001  RH  060%=      5-min Rain = 0
KWE2 130755Z 25005KT 07/00 A30 RMK A01 T00730001  RH  060%=      5-min Rain = 0
KWE2 130756Z 25005KT 07/00 A30 RMK A01 T00730001  RH  060%=      5-min Rain = 0
KWE2 130757Z 24005KT 07/00 A30 RMK A01 T00730002  RH  060%=      5-min Rain = 0
KWE2 130758Z 24005KT 07/00 A30 RMK A01 T00730002  RH  061%=      5-min Rain = 0
KWE2 130759Z 24005KT 07/00 A30 RMK A01 T00730002  RH  061%=      5-min Rain = 0
KWE2 130800Z 24005KT 07/00 A30 RMK A01 T00720002  RH  061%=      5-min Rain = 0
KWE2 130801Z 25004KT 07/00 A30 RMK A01 T00720002  RH  061%=      5-min Rain = 0
KWE2 130802Z 25005KT 07/00 A30 RMK A01 T00710002  RH  061%=      5-min Rain = 0
KWE2 130803Z 25004KT 07/00 A30 RMK A01 T00710002  RH  062%=      5-min Rain = 0
KWE2 130804Z 26004KT 07/00 A30 RMK A01 T00700002  RH  062%=      5-min Rain = 0
KWE2 130805Z 26004KT 07/00 A30 RMK A01 T00700002  RH  062%=      5-min Rain = 0
KWE2 130806Z 26004KT 07/00 A30 RMK A01 T00700003  RH  062%=      5-min Rain = 0
KWE2 130807Z 26004KT 07/00 A30 RMK A01 T00700003  RH  063%=      5-min Rain = 0
KWE2 130808Z 26004KT 07/00 A30 RMK A01 T00690004  RH  063%=      5-min Rain = 0
KWE2 130809Z 26004KT 07/00 A30 RMK A01 T00700004  RH  063%=      5-min Rain = 0
KWE2 130810Z 25004KT 07/00 A30 RMK A01 T00690004  RH  063%=      5-min Rain = 0
KWE2 130811Z 25004KT 07/00 A30 RMK A01 T00690004  RH  063%=      5-min Rain = 0
KWE2 130812Z 25004KT 07/00 A30 RMK A01 T00690004  RH  064%=      5-min Rain = 0
KWE2 130813Z 25005KT 07/01 A30 RMK A01 T00690005  RH  064%=      5-min Rain = 0
KWE2 130814Z 25005KT 07/01 A30 RMK A01 T00680005  RH  064%=      5-min Rain = 0
KWE2 130815Z 25005KT 07/01 A30 RMK A01 T00670005  RH  064%=      5-min Rain = 0
KWE2 130816Z 25005KT 07/01 A30 RMK A01 T00670005  RH  065%=      5-min Rain = 0
KWE2 130817Z 25005KT 07/01 A30 RMK A01 T00670005  RH  065%=      5-min Rain = 0
KWE2 130818Z 25005KT 07/01 A30 RMK A01 T00670005  RH  065%=      5-min Rain = 0
KWE2 130819Z 25005KT 07/01 A30 RMK A01 T00670006  RH  065%=      5-min Rain = 0
KWE2 130820Z 25005KT 07/01 A30 RMK A01 T00670006  RH  065%=      5-min Rain = 0
KWE2 130821Z 25005KT 07/01 A30 RMK A01 T00670006  RH  065%=      5-min Rain = 0
KWE2 130822Z 25006KT 07/01 A30 RMK A01 T00670006  RH  065%=      5-min Rain = 0
KWE2 130823Z 25006KT 07/01 A30 RMK A01 T00670006  RH  065%=      5-min Rain = 0
KWE2 130824Z 25006KT 07/01 A30 RMK A01 T00680006  RH  065%=      5-min Rain = 0
KWE2 130825Z 25006KT 07/01 A2999 RMK A01 T00690006  RH  065%=      5-min Rain = 0
KWE2 130826Z 25006KT 07/01 A2999 RMK A01 T00690006  RH  064%=      5-min Rain = 0
KWE2 130827Z 25006KT 07/01 A2999 RMK A01 T00690006  RH  064%=      5-min Rain = 0
KWE2 130828Z 25006KT 07/01 A2999 RMK A01 T00690006  RH  064%=      5-min Rain = 0
KWE2 130829Z 25006KT 07/01 A2999 RMK A01 T00690007  RH  064%=      5-min Rain = 0
KWE2 130830Z 25006KT 07/01 A2999 RMK A01 T00690007  RH  064%=      5-min Rain = 0
KWE2 130831Z 24006KT 07/01 A2999 RMK A01 T00690007  RH  064%=      5-min Rain = 0
KWE2 130832Z 24006KT 07/01 A2999 RMK A01 T00690007  RH  065%=      5-min Rain = 0
KWE2 130833Z 24006KT 07/01 A2999 RMK A01 T00690006  RH  065%=      5-min Rain = 0
KWE2 130834Z 25006KT 07/01 A2999 RMK A01 T00690006  RH  064%=      5-min Rain = 0
KWE2 130835Z 25006KT 07/01 A2999 RMK A01 T00680006  RH  064%=      5-min Rain = 0
KWE2 130836Z 25006KT 07/01 A2999 RMK A01 T00690006  RH  064%=      5-min Rain = 0
KWE2 130837Z 25006KT 07/01 A2999 RMK A01 T00700006  RH  064%=      5-min Rain = 0
KWE2 130838Z 25006KT 07/01 A2999 RMK A01 T00690005  RH  064%=      5-min Rain = 0
KWE2 130839Z 25006KT 07/01 A2999 RMK A01 T00700006  RH  063%=      5-min Rain = 0
KWE2 130840Z 25006KT 07/01 A2999 RMK A01 T00710006  RH  063%=      5-min Rain = 0
KWE2 130841Z 25006KT 07/01 A2999 RMK A01 T00710006  RH  063%=      5-min Rain = 0
KWE2 130842Z 25006KT 07/01 A2999 RMK A01 T00710006  RH  063%=      5-min Rain = 0
KWE2 130843Z 25006KT 07/01 A2999 RMK A01 T00710006  RH  063%=      5-min Rain = 0
KWE2 130844Z 25006KT 07/01 A2999 RMK A01 T00720006  RH  063%=      5-min Rain = 0
KWE2 130845Z 24005KT 07/01 A2999 RMK A01 T00720006  RH  063%=      5-min Rain = 0
KWE2 130846Z 24005KT 07/01 A2999 RMK A01 T00720006  RH  063%=      5-min Rain = 0
KWE2 130847Z 24006KT 07/01 A2999 RMK A01 T00720006  RH  063%=      5-min Rain = 0
KWE2 130848Z 24006KT 07/01 A2999 RMK A01 T00720005  RH  063%=      5-min Rain = 0
KWE2 130849Z 24006KT 07/01 A2998 RMK A01 T00720005  RH  062%=      5-min Rain = 0
KWE2 130850Z 24006KT 07/01 A2998 RMK A01 T00730005  RH  062%=      5-min Rain = 0
KWE2 130851Z 24006KT 07/01 A2998 RMK A01 T00730005  RH  062%=      5-min Rain = 0
KWE2 130852Z 24006KT 07/01 A2998 RMK A01 T00730005  RH  062%=      5-min Rain = 0
KWE2 130853Z 24006KT 07/01 A2998 RMK A01 T00730005  RH  062%=      5-min Rain = 0
KWE2 130854Z 24006KT 07/01 A2998 RMK A01 T00730005  RH  062%=      5-min Rain = 0
KWE2 130855Z 24006KT 07/01 A2998 RMK A01 T00740005  RH  062%=      5-min Rain = 0
KWE2 130856Z 24006KT 07/01 A2998 RMK A01 T00740005  RH  062%=      5-min Rain = 0
KWE2 130857Z 24006KT 07/01 A2998 RMK A01 T00740005  RH  062%=      5-min Rain = 0
KWE2 130858Z 24006KT 08/01 A2998 RMK A01 T00750005  RH  061%=      5-min Rain = 0
KWE2 130859Z 24006KT 08/01 A2998 RMK A01 T00750006  RH  061%=      5-min Rain = 0
KWE2 130900Z 24006KT 08/01 A2998 RMK A01 T00750005  RH  061%=      5-min Rain = 0
KWE2 130901Z 24006KT 07/01 A2998 RMK A01 T00740005  RH  061%=      5-min Rain = 0
KWE2 130902Z 24006KT 07/01 A2998 RMK A01 T00740005  RH  061%=      5-min Rain = 0
KWE2 130903Z 24006KT 08/01 A2998 RMK A01 T00750006  RH  062%=      5-min Rain = 0
KWE2 130904Z 24006KT 08/01 A2998 RMK A01 T00750005  RH  061%=      5-min Rain = 0
KWE2 130905Z 24005KT 08/01 A2998 RMK A01 T00750005  RH  061%=      5-min Rain = 0
KWE2 130906Z 24005KT 08/01 A2998 RMK A01 T00750005  RH  061%=      5-min Rain = 0
KWE2 130907Z 24005KT 08/01 A2998 RMK A01 T00750005  RH  061%=      5-min Rain = 0
KWE2 130908Z 24004KT 08/01 A2998 RMK A01 T00750005  RH  061%=      5-min Rain = 0
KWE2 130909Z 24003KT 08/01 A2998 RMK A01 T00750006  RH  061%=      5-min Rain = 0
KWE2 130910Z 25004KT 08/01 A2998 RMK A01 T00750006  RH  061%=      5-min Rain = 0
KWE2 130911Z 25004KT 07/01 A2998 RMK A01 T00740006  RH  062%=      5-min Rain = 0
KWE2 130912Z 26004KT 07/01 A2998 RMK A01 T00740006  RH  062%=      5-min Rain = 0
KWE2 130913Z 25004KT 07/01 A2998 RMK A01 T00730006  RH  062%=      5-min Rain = 0
KWE2 130914Z 25004KT 07/01 A2998 RMK A01 T00730006  RH  063%=      5-min Rain = 0
KWE2 130915Z 25004KT 07/01 A2998 RMK A01 T00730007  RH  063%=      5-min Rain = 0
KWE2 130916Z 25004KT 07/01 A2998 RMK A01 T00720007  RH  063%=      5-min Rain = 0
KWE2 130917Z 25005KT 07/01 A2998 RMK A01 T00710007  RH  063%=      5-min Rain = 0
KWE2 130918Z 24005KT 07/01 A2998 RMK A01 T00710007  RH  064%=      5-min Rain = 0
KWE2 130919Z 24005KT 07/01 A2998 RMK A01 T00700007  RH  064%=      5-min Rain = 0
KWE2 130920Z 25005KT 07/01 A2998 RMK A01 T00700007  RH  064%=      5-min Rain = 0
KWE2 130921Z 24005KT 07/01 A2998 RMK A01 T00700008  RH  064%=      5-min Rain = 0
KWE2 130922Z 24005KT 07/01 A2998 RMK A01 T00700008  RH  065%=      5-min Rain = 0
KWE2 130923Z 25005KT 07/01 A2998 RMK A01 T00690007  RH  065%=      5-min Rain = 0
KWE2 130924Z 25004KT 07/01 A2998 RMK A01 T00690007  RH  065%=      5-min Rain = 0
KWE2 130925Z 24004KT 07/01 A2998 RMK A01 T00690007  RH  065%=      5-min Rain = 0
KWE2 130926Z 24004KT 07/01 A2998 RMK A01 T00690007  RH  065%=      5-min Rain = 0
KWE2 130927Z 25004KT 07/01 A2998 RMK A01 T00690007  RH  065%=      5-min Rain = 0
KWE2 130928Z 25004KT 07/01 A2998 RMK A01 T00690008  RH  065%=      5-min Rain = 0
KWE2 130929Z 25004KT 07/01 A2998 RMK A01 T00680008  RH  065%=      5-min Rain = 0
KWE2 130930Z 25004KT 07/01 A2998 RMK A01 T00680008  RH  065%=      5-min Rain = 0
KWE2 130931Z 25003KT 07/01 A2998 RMK A01 T00680008  RH  065%=      5-min Rain = 0
KWE2 130932Z 26004KT 07/01 A2998 RMK A01 T00680008  RH  066%=      5-min Rain = 0
KWE2 130933Z 25003KT 07/01 A2998 RMK A01 T00680008  RH  066%=      5-min Rain = 0
KWE2 130934Z 26003KT 07/01 A2998 RMK A01 T00680008  RH  066%=      5-min Rain = 0
KWE2 130935Z 26003KT 07/01 A2998 RMK A01 T00680008  RH  066%=      5-min Rain = 0
KWE2 130936Z 26004KT 07/01 A2998 RMK A01 T00670008  RH  066%=      5-min Rain = 0
KWE2 130937Z 26004KT 07/01 A2998 RMK A01 T00670008  RH  066%=      5-min Rain = 0
KWE2 130938Z 26004KT 07/01 A2998 RMK A01 T00670008  RH  066%=      5-min Rain = 0
KWE2 130939Z 25004KT 07/01 A2998 RMK A01 T00660008  RH  066%=      5-min Rain = 0
KWE2 130940Z 25004KT 07/01 A2998 RMK A01 T00660008  RH  067%=      5-min Rain = 0
KWE2 130941Z 25005KT 07/01 A2998 RMK A01 T00660008  RH  067%=      5-min Rain = 0
KWE2 130942Z 24004KT 07/01 A2998 RMK A01 T00660008  RH  066%=      5-min Rain = 0
KWE2 130943Z 23003KT 07/01 A2998 RMK A01 T00670007  RH  066%=      5-min Rain = 0
KWE2 130944Z 23003KT 07/01 A2998 RMK A01 T00680008  RH  065%=      5-min Rain = 0
KWE2 130945Z 24003KT 07/01 A2998 RMK A01 T00680007  RH  065%=      5-min Rain = 0
KWE2 130946Z 24003KT 07/01 A2998 RMK A01 T00680008  RH  065%=      5-min Rain = 0
KWE2 130947Z 25003KT 07/01 A2998 RMK A01 T00670007  RH  065%=      5-min Rain = 0
KWE2 130948Z 24003KT 07/01 A2998 RMK A01 T00670006  RH  065%=      5-min Rain = 0
KWE2 130949Z 24003KT 07/01 A2998 RMK A01 T00670006  RH  065%=      5-min Rain = 0
KWE2 130950Z 24003KT 07/01 A2998 RMK A01 T00670006  RH  065%=      5-min Rain = 0
KWE2 130951Z 24003KT 07/01 A2998 RMK A01 T00670006  RH  065%=      5-min Rain = 0
KWE2 130952Z 24003KT 07/01 A2998 RMK A01 T00680006  RH  065%=      5-min Rain = 0
KWE2 130953Z 24004KT 07/01 A2998 RMK A01 T00690007  RH  065%=      5-min Rain = 0
KWE2 130954Z 24004KT 07/01 A2998 RMK A01 T00690006  RH  064%=      5-min Rain = 0
KWE2 130955Z 23004KT 07/01 A2998 RMK A01 T00680005  RH  064%=      5-min Rain = 0
KWE2 130956Z 23004KT 07/01 A2998 RMK A01 T00680006  RH  064%=      5-min Rain = 0
KWE2 130957Z 23004KT 07/01 A2998 RMK A01 T00670005  RH  065%=      5-min Rain = 0
KWE2 130958Z 23004KT 07/01 A2998 RMK A01 T00660005  RH  065%=      5-min Rain = 0
KWE2 130959Z 22004KT 07/01 A2998 RMK A01 T00660005  RH  065%=      5-min Rain = 0
KWE2 131000Z 22004KT 07/01 A2998 RMK A01 T00650005  RH  065%=      5-min Rain = 0
KWE2 131001Z 22004KT 06/01 A2998 RMK A01 T00640005  RH  066%=      5-min Rain = 0
KWE2 131002Z 22004KT 06/01 A2998 RMK A01 T00640006  RH  066%=      5-min Rain = 0
KWE2 131003Z 21004KT 06/01 A2998 RMK A01 T00630005  RH  066%=      5-min Rain = 0
KWE2 131004Z 21004KT 06/01 A2998 RMK A01 T00620005  RH  067%=      5-min Rain = 0
KWE2 131005Z 21004KT 06/00 A2997 RMK A01 T00600004  RH  068%=      5-min Rain = 0
KWE2 131006Z 20004KT 06/01 A2997 RMK A01 T00590005  RH  068%=      5-min Rain = 0
KWE2 131007Z 20003KT 06/01 A2997 RMK A01 T00570005  RH  069%=      5-min Rain = 0
KWE2 131008Z 20003KT 06/01 A2997 RMK A01 T00570005  RH  069%=      5-min Rain = 0
KWE2 131009Z 19003KT 06/00 A2997 RMK A01 T00560004  RH  069%=      5-min Rain = 0
KWE2 131010Z 19003KT 06/01 A2997 RMK A01 T00560005  RH  070%=      5-min Rain = 0
KWE2 131011Z 19002KT 06/01 A2998 RMK A01 T00560005  RH  070%=      5-min Rain = 0
KWE2 131012Z 19002KT 06/01 A2998 RMK A01 T00570005  RH  069%=      5-min Rain = 0
KWE2 131013Z 18002KT 06/01 A2998 RMK A01 T00600006  RH  068%=      5-min Rain = 0
KWE2 131014Z 17002KT 06/01 A2998 RMK A01 T00620006  RH  067%=      5-min Rain = 0
KWE2 131015Z 17002KT 06/01 A2998 RMK A01 T00630006  RH  067%=      5-min Rain = 0
KWE2 131016Z 16002KT 06/01 A2998 RMK A01 T00630006  RH  067%=      5-min Rain = 0
KWE2 131017Z 16002KT 06/01 A2998 RMK A01 T00630006  RH  067%=      5-min Rain = 0
KWE2 131018Z 16002KT 06/01 A2998 RMK A01 T00640007  RH  067%=      5-min Rain = 0
KWE2 131019Z 17002KT 06/01 A2998 RMK A01 T00640006  RH  067%=      5-min Rain = 0
KWE2 131020Z 18002KT 06/01 A2998 RMK A01 T00630005  RH  067%=      5-min Rain = 0
KWE2 131021Z 19002KT 06/01 A2998 RMK A01 T00630005  RH  067%=      5-min Rain = 0
KWE2 131022Z 19002KT 06/01 A2998 RMK A01 T00620005  RH  067%=      5-min Rain = 0
KWE2 131023Z 19002KT 06/01 A2998 RMK A01 T00620005  RH  067%=      5-min Rain = 0
KWE2 131024Z 19003KT 06/01 A2998 RMK A01 T00620005  RH  067%=      5-min Rain = 0
KWE2 131025Z 19003KT 06/01 A2998 RMK A01 T00620005  RH  067%=      5-min Rain = 0
KWE2 131026Z 19003KT 06/01 A2998 RMK A01 T00620005  RH  067%=      5-min Rain = 0
KWE2 131027Z 20003KT 06/00 A2998 RMK A01 T00620004  RH  067%=      5-min Rain = 0
KWE2 131028Z 20003KT 06/00 A2998 RMK A01 T00630004  RH  066%=      5-min Rain = 0
KWE2 131029Z 21004KT 06/00 A2998 RMK A01 T00630004  RH  066%=      5-min Rain = 0
KWE2 131030Z 21004KT 06/00 A2998 RMK A01 T00630004  RH  066%=      5-min Rain = 0
KWE2 131031Z 21004KT 06/00 A2998 RMK A01 T00620004  RH  066%=      5-min Rain = 0
KWE2 131032Z 21003KT 06/00 A2998 RMK A01 T00620004  RH  066%=      5-min Rain = 0
KWE2 131033Z 21003KT 06/00 A2998 RMK A01 T00620004  RH  066%=      5-min Rain = 0
KWE2 131034Z 21003KT 06/01 A2998 RMK A01 T00620005  RH  067%=      5-min Rain = 0
KWE2 131035Z 21003KT 06/01 A2998 RMK A01 T00630005  RH  067%=      5-min Rain = 0
KWE2 131036Z 21004KT 06/01 A2998 RMK A01 T00630005  RH  067%=      5-min Rain = 0
KWE2 131037Z 21004KT 06/01 A2997 RMK A01 T00630005  RH  066%=      5-min Rain = 0
KWE2 131038Z 20004KT 06/01 A2997 RMK A01 T00630005  RH  066%=      5-min Rain = 0
KWE2 131039Z 20004KT 06/01 A2997 RMK A01 T00630005  RH  066%=      5-min Rain = 0
KWE2 131040Z 20004KT 06/01 A2997 RMK A01 T00620005  RH  067%=      5-min Rain = 0
KWE2 131041Z 19004KT 06/01 A2997 RMK A01 T00620005  RH  067%=      5-min Rain = 0
KWE2 131042Z 20004KT 06/01 A2997 RMK A01 T00600005  RH  067%=      5-min Rain = 0
KWE2 131043Z 19003KT 06/01 A2997 RMK A01 T00590005  RH  068%=      5-min Rain = 0
KWE2 131044Z 19003KT 06/01 A2997 RMK A01 T00580005  RH  068%=      5-min Rain = 0
KWE2 131045Z 19003KT 06/00 A2997 RMK A01 T00570004  RH  069%=      5-min Rain = 0
KWE2 131046Z 18003KT 06/00 A2997 RMK A01 T00570004  RH  069%=      5-min Rain = 0
KWE2 131047Z 18002KT 06/00 A2997 RMK A01 T00560003  RH  069%=      5-min Rain = 0
KWE2 131048Z 18002KT 06/00 A2997 RMK A01 T00570004  RH  069%=      5-min Rain = 0
KWE2 131049Z 17001KT 06/00 A2997 RMK A01 T00580004  RH  068%=      5-min Rain = 0
KWE2 131050Z 16001KT 06/00 A2997 RMK A01 T00600004  RH  067%=      5-min Rain = 0
KWE2 131051Z 16000KT 06/00 A2998 RMK A01 T00620004  RH  067%=      5-min Rain = 0
KWE2 131052Z 16001KT 06/00 A2998 RMK A01 T00630004  RH  066%=      5-min Rain = 0
KWE2 131053Z 16000KT 06/00 A2998 RMK A01 T00640004  RH  065%=      5-min Rain = 0
KWE2 131054Z 14000KT 07/00 A2998 RMK A01 T00650004  RH  065%=      5-min Rain = 0
KWE2 131055Z 15001KT 07/01 A2998 RMK A01 T00660005  RH  065%=      5-min Rain = 0
KWE2 131056Z 15001KT 07/01 A2998 RMK A01 T00660005  RH  065%=      5-min Rain = 0
KWE2 131057Z 16002KT 07/01 A2998 RMK A01 T00660006  RH  066%=      5-min Rain = 0
KWE2 131058Z 17002KT 07/01 A2998 RMK A01 T00650006  RH  066%=      5-min Rain = 0
KWE2 131059Z 18002KT 06/01 A2998 RMK A01 T00640006  RH  066%=      5-min Rain = 0
KWE2 131100Z 18002KT 06/01 A2998 RMK A01 T00630005  RH  067%=      5-min Rain = 0
KWE2 131101Z 19002KT 06/01 A2998 RMK A01 T00620005  RH  067%=      5-min Rain = 0
KWE2 131102Z 20002KT 06/01 A2998 RMK A01 T00610005  RH  067%=      5-min Rain = 0
KWE2 131103Z 21002KT 06/01 A2998 RMK A01 T00610005  RH  067%=      5-min Rain = 0
KWE2 131104Z 21003KT 06/01 A2998 RMK A01 T00610005  RH  067%=      5-min Rain = 0
KWE2 131105Z 22003KT 06/00 A2998 RMK A01 T00590004  RH  068%=      5-min Rain = 0
KWE2 131106Z 22003KT 06/00 A2998 RMK A01 T00580004  RH  068%=      5-min Rain = 0
KWE2 131107Z 23002KT 06/00 A2998 RMK A01 T00570004  RH  069%=      5-min Rain = 0
KWE2 131108Z 23002KT 06/00 A2998 RMK A01 T00570004  RH  069%=      5-min Rain = 0
KWE2 131109Z 23002KT 06/01 A2998 RMK A01 T00570005  RH  069%=      5-min Rain = 0
KWE2 131110Z 23002KT 06/01 A2998 RMK A01 T00570006  RH  069%=      5-min Rain = 0
KWE2 131111Z 22002KT 06/01 A2998 RMK A01 T00570005  RH  069%=      5-min Rain = 0
KWE2 131112Z 24001KT 06/00 A2998 RMK A01 T00580004  RH  069%=      5-min Rain = 0
KWE2 131113Z 23001KT 06/00 A2998 RMK A01 T00580004  RH  069%=      5-min Rain = 0
KWE2 131114Z 23001KT 06/00 A2998 RMK A01 T00580004  RH  069%=      5-min Rain = 0
KWE2 131115Z 22002KT 06/01 A2998 RMK A01 T00590005  RH  068%=      5-min Rain = 0
KWE2 131116Z 23002KT 06/01 A2998 RMK A01 T00600005  RH  068%=      5-min Rain = 0
KWE2 131117Z 23002KT 06/01 A2998 RMK A01 T00600005  RH  068%=      5-min Rain = 0
KWE2 131118Z 23002KT 06/01 A2998 RMK A01 T00610005  RH  067%=      5-min Rain = 0
KWE2 131119Z 24002KT 06/01 A2998 RMK A01 T00620005  RH  067%=      5-min Rain = 0
KWE2 131120Z 24002KT 06/01 A2998 RMK A01 T00620005  RH  067%=      5-min Rain = 0
KWE2 131121Z 23002KT 06/01 A2998 RMK A01 T00620005  RH  067%=      5-min Rain = 0
KWE2 131122Z 23002KT 06/01 A2998 RMK A01 T00630006  RH  067%=      5-min Rain = 0
KWE2 131123Z 22002KT 06/01 A2998 RMK A01 T00640005  RH  066%=      5-min Rain = 0
KWE2 131124Z 22002KT 07/01 A2998 RMK A01 T00650005  RH  066%=      5-min Rain = 0
KWE2 131125Z 22002KT 07/01 A2998 RMK A01 T00650005  RH  066%=      5-min Rain = 0
KWE2 131126Z 23002KT 07/00 A2999 RMK A01 T00650004  RH  065%=      5-min Rain = 0
KWE2 131127Z 23002KT 07/00 A2999 RMK A01 T00650004  RH  065%=      5-min Rain = 0
KWE2 131128Z 22002KT 07/01 A2999 RMK A01 T00650005  RH  065%=      5-min Rain = 0
KWE2 131129Z 22002KT 06/00 A2999 RMK A01 T00640004  RH  066%=      5-min Rain = 0
KWE2 131130Z 22003KT 06/00 A2999 RMK A01 T00630004  RH  066%=      5-min Rain = 0
KWE2 131131Z 21003KT 06/00 A2998 RMK A01 T00630003  RH  066%=      5-min Rain = 0
KWE2 131132Z 21004KT 06/00 A2998 RMK A01 T00640004  RH  066%=      5-min Rain = 0
KWE2 131133Z 21004KT 06/00 A2998 RMK A01 T00630003  RH  065%=      5-min Rain = 0
KWE2 131134Z 22005KT 06/00 A2998 RMK A01 T00630003  RH  066%=      5-min Rain = 0
KWE2 131135Z 22005KT 06/00 A2998 RMK A01 T00610003  RH  066%=      5-min Rain = 0
KWE2 131136Z 22005KT 06/00 A2998 RMK A01 T00600003  RH  067%=      5-min Rain = 0
KWE2 131137Z 22005KT 06/00 A2998 RMK A01 T00590004  RH  067%=      5-min Rain = 0
KWE2 131138Z 22005KT 06/00 A2998 RMK A01 T00590004  RH  068%=      5-min Rain = 0
KWE2 131139Z 22005KT 06/00 A2998 RMK A01 T00590004  RH  068%=      5-min Rain = 0
KWE2 131140Z 22005KT 06/00 A2998 RMK A01 T00590004  RH  068%=      5-min Rain = 0
KWE2 131141Z 22005KT 06/00 A2998 RMK A01 T00590004  RH  068%=      5-min Rain = 0
KWE2 131142Z 22005KT 06/00 A2998 RMK A01 T00590004  RH  068%=      5-min Rain = 0
KWE2 131143Z 22005KT 06/00 A2998 RMK A01 T00590004  RH  068%=      5-min Rain = 0
KWE2 131144Z 22005KT 06/00 A2998 RMK A01 T00590004  RH  068%=      5-min Rain = 0
KWE2 131145Z 22005KT 06/00 A2998 RMK A01 T00580004  RH  068%=      5-min Rain = 0
KWE2 131146Z 22006KT 06/00 A2998 RMK A01 T00580004  RH  069%=      5-min Rain = 0
KWE2 131147Z 21005KT 06/01 A2998 RMK A01 T00580005  RH  069%=      5-min Rain = 0
KWE2 131148Z 21005KT 06/00 A2998 RMK A01 T00570004  RH  069%=      5-min Rain = 0
KWE2 131149Z 21005KT 06/01 A2998 RMK A01 T00570005  RH  069%=      5-min Rain = 0
KWE2 131150Z 21005KT 06/01 A2999 RMK A01 T00570005  RH  069%=      5-min Rain = 0
KWE2 131151Z 21004KT 06/01 A2999 RMK A01 T00560005  RH  069%=      5-min Rain = 0
KWE2 131152Z 20004KT 06/01 A2999 RMK A01 T00560005  RH  070%=      5-min Rain = 0
KWE2 131153Z 20003KT 06/01 A2999 RMK A01 T00560005  RH  070%=      5-min Rain = 0
KWE2 131154Z 20002KT 06/01 A2999 RMK A01 T00560005  RH  070%=      5-min Rain = 0
KWE2 131155Z 20001KT 06/01 A2999 RMK A01 T00550005  RH  070%=      5-min Rain = 0
KWE2 131156Z 00000KT 06/01 A2999 RMK A01 T00550006  RH  071%=      5-min Rain = 0
KWE2 131157Z 00000KT 06/01 A2999 RMK A01 T00550005  RH  070%=      5-min Rain = 0
KWE2 131158Z 00000KT 06/01 A2999 RMK A01 T00560005  RH  070%=      5-min Rain = 0
KWE2 131159Z 00000KT 06/01 A2999 RMK A01 T00570005  RH  069%=      5-min Rain = 0
KWE2 131200Z 00000KT 06/01 A2999 RMK A01 T00580005  RH  069%=      5-min Rain = 0
KWE2 131201Z 23000KT 06/01 A2999 RMK A01 T00580005  RH  069%=      5-min Rain = 0
KWE2 131202Z 19000KT 06/01 A2999 RMK A01 T00590005  RH  068%=      5-min Rain = 0
KWE2 131203Z 21001KT 06/01 A2999 RMK A01 T00600005  RH  068%=      5-min Rain = 0
KWE2 131204Z 23002KT 06/01 A2999 RMK A01 T00600005  RH  068%=      5-min Rain = 0
KWE2 131205Z 24001KT 06/01 A2999 RMK A01 T00610005  RH  068%=      5-min Rain = 0
KWE2 131206Z 25001KT 06/01 A2999 RMK A01 T00610005  RH  067%=      5-min Rain = 0
KWE2 131207Z 25001KT 06/01 A2999 RMK A01 T00610006  RH  068%=      5-min Rain = 0
KWE2 131208Z 27002KT 06/01 A2999 RMK A01 T00610006  RH  068%=      5-min Rain = 0
KWE2 131209Z 26001KT 06/01 A2999 RMK A01 T00620005  RH  067%=      5-min Rain = 0
KWE2 131210Z 25002KT 06/01 A2999 RMK A01 T00620006  RH  067%=      5-min Rain = 0
KWE2 131211Z 26003KT 06/01 A2999 RMK A01 T00620006  RH  067%=      5-min Rain = 0
KWE2 131212Z 25003KT 06/01 A2999 RMK A01 T00630005  RH  067%=      5-min Rain = 0
KWE2 131213Z 25003KT 06/01 A2999 RMK A01 T00630005  RH  067%=      5-min Rain = 0
KWE2 131214Z 24003KT 06/01 A2999 RMK A01 T00630005  RH  067%=      5-min Rain = 0
KWE2 131215Z 24003KT 06/01 A2999 RMK A01 T00630005  RH  066%=      5-min Rain = 0
KWE2 131216Z 24003KT 06/01 A2999 RMK A01 T00630005  RH  067%=      5-min Rain = 0
KWE2 131217Z 25003KT 06/01 A2999 RMK A01 T00630007  RH  067%=      5-min Rain = 0
KWE2 131218Z 26002KT 06/01 A2999 RMK A01 T00620007  RH  068%=      5-min Rain = 0
KWE2 131219Z 30002KT 06/01 A30 RMK A01 T00610008  RH  068%=      5-min Rain = 0
KWE2 131220Z 36005KT 06/01 A30 RMK A01 T00610009  RH  069%=      5-min Rain = 0
KWE2 131221Z 01009KT 06/01 A30 RMK A01 T00590009  RH  070%=      5-min Rain = 0
KWE2 131222Z 00009KT 06/01 A30 RMK A01 T00580008  RH  070%=      5-min Rain = 0
KWE2 131223Z 00007KT 06/01 A30 RMK A01 T00600008  RH  069%=      5-min Rain = 0
KWE2 131224Z 35004KT 06/01 A30 RMK A01 T00630007  RH  068%=      5-min Rain = 0
KWE2 131225Z 34002KT 06/01 A30 RMK A01 T00640007  RH  067%=      5-min Rain = 0
KWE2 131226Z 31001KT 07/01 A2999 RMK A01 T00650007  RH  067%=      5-min Rain = 0
KWE2 131227Z 27001KT 07/01 A2999 RMK A01 T00650007  RH  066%=      5-min Rain = 0
KWE2 131228Z 31001KT 07/01 A30 RMK A01 T00650007  RH  066%=      5-min Rain = 0
KWE2 131229Z 34003KT 07/01 A30 RMK A01 T00650007  RH  066%=      5-min Rain = 0
KWE2 131230Z 35004KT 07/01 A30 RMK A01 T00650007  RH  067%=      5-min Rain = 0
KWE2 131231Z 35005KT 07/01 A30 RMK A01 T00650008  RH  067%=      5-min Rain = 0
KWE2 131232Z 35005KT 06/01 A30 RMK A01 T00640009  RH  068%=      5-min Rain = 0
KWE2 131233Z 36003KT 06/01 A30 RMK A01 T00620009  RH  069%=      5-min Rain = 0
KWE2 131234Z 01004KT 06/01 A30 RMK A01 T00610009  RH  069%=      5-min Rain = 0
KWE2 131235Z 02004KT 06/01 A30 RMK A01 T00610009  RH  069%=      5-min Rain = 0
KWE2 131236Z 02003KT 06/01 A30 RMK A01 T00600009  RH  070%=      5-min Rain = 0
KWE2 131237Z 03001KT 06/01 A30 RMK A01 T00600009  RH  070%=      5-min Rain = 0
KWE2 131238Z 12000KT 06/01 A30 RMK A01 T00600009  RH  070%=      5-min Rain = 0
KWE2 131239Z 16001KT 06/01 A2999 RMK A01 T00600009  RH  069%=      5-min Rain = 0
KWE2 131240Z 20002KT 06/01 A2999 RMK A01 T00620008  RH  069%=      5-min Rain = 0
KWE2 131241Z 20002KT 06/01 A30 RMK A01 T00620007  RH  068%=      5-min Rain = 0
KWE2 131242Z 27001KT 06/01 A30 RMK A01 T00620007  RH  068%=      5-min Rain = 0
KWE2 131243Z 35001KT 06/01 A30 RMK A01 T00630008  RH  068%=      5-min Rain = 0
KWE2 131244Z 36005KT 06/01 A30 RMK A01 T00620008  RH  068%=      5-min Rain = 0
KWE2 131245Z 00007KT 06/01 A3001 RMK A01 T00620009  RH  069%=      5-min Rain = 0
KWE2 131246Z 35007KT 06/01 A3001 RMK A01 T00610009  RH  069%=      5-min Rain = 0
KWE2 131247Z 34004KT 06/01 A30 RMK A01 T00620009  RH  069%=      5-min Rain = 0
KWE2 131248Z 31003KT 06/01 A30 RMK A01 T00610009  RH  069%=      5-min Rain = 0
KWE2 131249Z 28002KT 06/01 A30 RMK A01 T00610009  RH  069%=      5-min Rain = 0
KWE2 131250Z 29002KT 06/01 A30 RMK A01 T00610009  RH  069%=      5-min Rain = 0
KWE2 131251Z 32003KT 06/01 A30 RMK A01 T00610009  RH  069%=      5-min Rain = 0
KWE2 131252Z 34003KT 06/01 A30 RMK A01 T00610009  RH  069%=      5-min Rain = 0
KWE2 131253Z 36003KT 06/01 A30 RMK A01 T00600009  RH  070%=      5-min Rain = 0
KWE2 131254Z 01004KT 06/01 A30 RMK A01 T00600009  RH  070%=      5-min Rain = 0
KWE2 131255Z 01004KT 06/01 A30 RMK A01 T00590010  RH  071%=      5-min Rain = 0
KWE2 131256Z 36004KT 06/01 A30 RMK A01 T00580010  RH  071%=      5-min Rain = 0
KWE2 131257Z 34003KT 06/01 A30 RMK A01 T00580010  RH  071%=      5-min Rain = 0
KWE2 131258Z 30001KT 06/01 A30 RMK A01 T00580010  RH  071%=      5-min Rain = 0
KWE2 131259Z 27002KT 06/01 A30 RMK A01 T00590010  RH  071%=      5-min Rain = 0
KWE2 131300Z 28002KT 06/01 A30 RMK A01 T00590011  RH  071%=      5-min Rain = 0
KWE2 131301Z 27002KT 06/01 A30 RMK A01 T00590011  RH  071%=      5-min Rain = 0
KWE2 131302Z 28003KT 06/01 A30 RMK A01 T00580011  RH  072%=      5-min Rain = 0
KWE2 131303Z 27002KT 06/01 A30 RMK A01 T00580011  RH  072%=      5-min Rain = 0
KWE2 131304Z 28002KT 06/01 A30 RMK A01 T00580011  RH  072%=      5-min Rain = 0
KWE2 131305Z 31002KT 06/01 A30 RMK A01 T00580011  RH  072%=      5-min Rain = 0
KWE2 131306Z 32002KT 06/01 A30 RMK A01 T00570010  RH  072%=      5-min Rain = 0
KWE2 131307Z 36002KT 06/01 A30 RMK A01 T00580011  RH  072%=      5-min Rain = 0
KWE2 131308Z 01005KT 06/01 A3001 RMK A01 T00580011  RH  072%=      5-min Rain = 0
KWE2 131309Z 01007KT 06/01 A3001 RMK A01 T00580011  RH  072%=      5-min Rain = 0
KWE2 131310Z 01005KT 06/01 A3001 RMK A01 T00590011  RH  071%=      5-min Rain = 0
KWE2 131311Z 34002KT 06/01 A30 RMK A01 T00610011  RH  070%=      5-min Rain = 0
KWE2 131312Z 26003KT 06/01 A30 RMK A01 T00630010  RH  069%=      5-min Rain = 0
KWE2 131313Z 24004KT 07/01 A30 RMK A01 T00650011  RH  068%=      5-min Rain = 0
KWE2 131314Z 23005KT 07/01 A30 RMK A01 T00660011  RH  068%=      5-min Rain = 0
KWE2 131315Z 24005KT 07/01 A30 RMK A01 T00660011  RH  068%=      5-min Rain = 0
KWE2 131316Z 24004KT 07/01 A30 RMK A01 T00660011  RH  068%=      5-min Rain = 0
KWE2 131317Z 25004KT 07/01 A30 RMK A01 T00660010  RH  067%=      5-min Rain = 0
KWE2 131318Z 26004KT 07/01 A30 RMK A01 T00670011  RH  067%=      5-min Rain = 0
KWE2 131319Z 26004KT 07/01 A30 RMK A01 T00680011  RH  067%=      5-min Rain = 0
KWE2 131320Z 28003KT 07/01 A30 RMK A01 T00690012  RH  067%=      5-min Rain = 0
KWE2 131321Z 29002KT 07/01 A30 RMK A01 T00700012  RH  066%=      5-min Rain = 0
KWE2 131322Z 31002KT 07/01 A30 RMK A01 T00710012  RH  066%=      5-min Rain = 0
KWE2 131323Z 32002KT 07/01 A30 RMK A01 T00720013  RH  066%=      5-min Rain = 0
KWE2 131324Z 34002KT 07/01 A30 RMK A01 T00730014  RH  066%=      5-min Rain = 0
KWE2 131325Z 36003KT 07/01 A3001 RMK A01 T00730014  RH  066%=      5-min Rain = 0
KWE2 131326Z 35004KT 07/01 A3001 RMK A01 T00740014  RH  066%=      5-min Rain = 0
KWE2 131327Z 35003KT 08/01 A3001 RMK A01 T00750014  RH  065%=      5-min Rain = 0
KWE2 131328Z 35002KT 08/01 A3001 RMK A01 T00750013  RH  065%=      5-min Rain = 0
KWE2 131329Z 33001KT 08/01 A30 RMK A01 T00760013  RH  064%=      5-min Rain = 0
KWE2 131330Z 30001KT 08/02 A30 RMK A01 T00780015  RH  064%=      5-min Rain = 0
KWE2 131331Z 32002KT 08/02 A3001 RMK A01 T00810015  RH  063%=      5-min Rain = 0
KWE2 131332Z 32001KT 08/01 A3001 RMK A01 T00810014  RH  063%=      5-min Rain = 0
KWE2 131333Z 28000KT 08/02 A3001 RMK A01 T00820015  RH  062%=      5-min Rain = 0
KWE2 131334Z 28000KT 08/02 A3001 RMK A01 T00840015  RH  062%=      5-min Rain = 0
KWE2 131335Z 00000KT 09/02 A3001 RMK A01 T00860015  RH  061%=      5-min Rain = 0
KWE2 131336Z 00000KT 09/01 A3001 RMK A01 T00880014  RH  060%=      5-min Rain = 0
KWE2 131337Z 22001KT 09/01 A3001 RMK A01 T00880014  RH  060%=      5-min Rain = 0
KWE2 131338Z 23001KT 09/01 A3001 RMK A01 T00880013  RH  059%=      5-min Rain = 0
KWE2 131339Z 25001KT 09/01 A3001 RMK A01 T00880013  RH  059%=      5-min Rain = 0
KWE2 131340Z 29001KT 09/01 A3001 RMK A01 T00880011  RH  058%=      5-min Rain = 0
KWE2 131341Z 31001KT 09/01 A3001 RMK A01 T00890012  RH  058%=      5-min Rain = 0
KWE2 131342Z 30001KT 09/01 A3001 RMK A01 T00900011  RH  058%=      5-min Rain = 0
KWE2 131343Z 30001KT 09/01 A3001 RMK A01 T00910013  RH  058%=      5-min Rain = 0
KWE2 131344Z 28001KT 09/01 A3001 RMK A01 T00920012  RH  057%=      5-min Rain = 0
KWE2 131345Z 24001KT 09/01 A3001 RMK A01 T00930012  RH  057%=      5-min Rain = 0
KWE2 131346Z 23002KT 09/01 A3001 RMK A01 T00940011  RH  056%=      5-min Rain = 0
KWE2 131347Z 24002KT 10/01 A3001 RMK A01 T00950011  RH  056%=      5-min Rain = 0
KWE2 131348Z 24002KT 10/01 A3001 RMK A01 T00960012  RH  056%=      5-min Rain = 0
KWE2 131349Z 25002KT 10/01 A3001 RMK A01 T00970011  RH  055%=      5-min Rain = 0
KWE2 131350Z 24002KT 10/01 A3001 RMK A01 T00990011  RH  054%=      5-min Rain = 0
KWE2 131351Z 24003KT 10/01 A3001 RMK A01 T01000009  RH  053%=      5-min Rain = 0
KWE2 131352Z 24003KT 10/01 A3001 RMK A01 T01000008  RH  053%=      5-min Rain = 0
KWE2 131353Z 24003KT 10/01 A3001 RMK A01 T01010008  RH  053%=      5-min Rain = 0
KWE2 131354Z 24002KT 10/01 A3001 RMK A01 T01010009  RH  053%=      5-min Rain = 0
KWE2 131355Z 25002KT 10/01 A3001 RMK A01 T01030009  RH  052%=      5-min Rain = 0
KWE2 131356Z 25003KT 10/01 A3001 RMK A01 T01040007  RH  051%=      5-min Rain = 0
KWE2 131357Z 25003KT 11/01 A3002 RMK A01 T01050006  RH  050%=      5-min Rain = 0
KWE2 131358Z 26002KT 11/01 A3002 RMK A01 T01050006  RH  050%=      5-min Rain = 0
KWE2 131359Z 27003KT 11/01 A3002 RMK A01 T01060007  RH  050%=      5-min Rain = 0
KWE2 131400Z 26003KT 11/01 A3002 RMK A01 T01070007  RH  050%=      5-min Rain = 0
KWE2 131401Z 26003KT 11/01 A3002 RMK A01 T01080006  RH  049%=      5-min Rain = 0
KWE2 131402Z 26003KT 11/01 A3002 RMK A01 T01080006  RH  049%=      5-min Rain = 0
KWE2 131403Z 27003KT 11/01 A3002 RMK A01 T01080007  RH  050%=      5-min Rain = 0
KWE2 131404Z 27003KT 11/01 A3002 RMK A01 T01090007  RH  049%=      5-min Rain = 0
KWE2 131405Z 27004KT 11/01 A3001 RMK A01 T01100008  RH  049%=      5-min Rain = 0
KWE2 131406Z 25003KT 11/01 A3001 RMK A01 T01110009  RH  049%=      5-min Rain = 0
KWE2 131407Z 25004KT 11/01 A3001 RMK A01 T01110009  RH  049%=      5-min Rain = 0
KWE2 131408Z 26003KT 11/01 A3002 RMK A01 T01120009  RH  049%=      5-min Rain = 0
KWE2 131409Z 26005KT 11/01 A3002 RMK A01 T01130009  RH  049%=      5-min Rain = 0
KWE2 131410Z 25004KT 11/01 A3002 RMK A01 T01140007  RH  048%=      5-min Rain = 0
KWE2 131411Z 28003KT 11/01 A3002 RMK A01 T01140008  RH  048%=      5-min Rain = 0
KWE2 131412Z 27005KT 12/01 A3002 RMK A01 T01160008  RH  048%=      5-min Rain = 0
KWE2 131413Z 26003KT 12/01 A3002 RMK A01 T01170008  RH  047%=      5-min Rain = 0
KWE2 131414Z 26004KT 12/01 A3002 RMK A01 T01170008  RH  047%=      5-min Rain = 0
KWE2 131415Z 25005KT 12/01 A3002 RMK A01 T01180009  RH  047%=      5-min Rain = 0
KWE2 131416Z 26005KT 12/01 A3002 RMK A01 T01190009  RH  047%=      5-min Rain = 0
KWE2 131417Z 26005KT 12/01 A3002 RMK A01 T01190010  RH  047%=      5-min Rain = 0
KWE2 131418Z 25005KT 12/01 A3002 RMK A01 T01200010  RH  047%=      5-min Rain = 0
KWE2 131419Z 25004KT 12/01 A3002 RMK A01 T01200011  RH  047%=      5-min Rain = 0
KWE2 131420Z 25004KT 12/01 A3002 RMK A01 T01210011  RH  047%=      5-min Rain = 0
KWE2 131421Z 26004KT 12/01 A3002 RMK A01 T01220012  RH  047%=      5-min Rain = 0
KWE2 131422Z 24005KT 12/01 A3002 RMK A01 T01230012  RH  046%=      5-min Rain = 0
KWE2 131423Z 25005KT 12/01 A3002 RMK A01 T01240012  RH  046%=      5-min Rain = 0
KWE2 131424Z 25005KT 13/01 A3002 RMK A01 T01250012  RH  046%=      5-min Rain = 0
KWE2 131425Z 26005KT 13/01 A3002 RMK A01 T01260012  RH  046%=      5-min Rain = 0
KWE2 131426Z 26004KT 13/01 A3002 RMK A01 T01260012  RH  046%=      5-min Rain = 0
KWE2 131427Z 26005KT 13/01 A3002 RMK A01 T01260013  RH  046%=      5-min Rain = 0
KWE2 131428Z 27005KT 13/01 A3002 RMK A01 T01280013  RH  046%=      5-min Rain = 0
KWE2 131429Z 27004KT 13/01 A3002 RMK A01 T01280014  RH  046%=      5-min Rain = 0
KWE2 131430Z 26006KT 13/02 A3002 RMK A01 T01300015  RH  046%=      5-min Rain = 0
KWE2 131431Z 28004KT 13/02 A3002 RMK A01 T01310015  RH  045%=      5-min Rain = 0
KWE2 131432Z 28004KT 13/02 A3002 RMK A01 T01320016  RH  045%=      5-min Rain = 0
KWE2 131433Z 27005KT 13/02 A3002 RMK A01 T01330015  RH  045%=      5-min Rain = 0
KWE2 131434Z 25004KT 13/02 A3002 RMK A01 T01330017  RH  045%=      5-min Rain = 0
KWE2 131435Z 25005KT 14/02 A3002 RMK A01 T01350016  RH  044%=      5-min Rain = 0
KWE2 131436Z 27005KT 14/02 A3002 RMK A01 T01360016  RH  044%=      5-min Rain = 0
KWE2 131437Z 26004KT 14/02 A3003 RMK A01 T01380017  RH  044%=      5-min Rain = 0
KWE2 131438Z 27005KT 14/02 A3003 RMK A01 T01390017  RH  043%=      5-min Rain = 0
KWE2 131439Z 27007KT 14/02 A3003 RMK A01 T01390016  RH  043%=      5-min Rain = 0
KWE2 131440Z 27007KT 14/02 A3003 RMK A01 T01390015  RH  043%=      5-min Rain = 0
KWE2 131441Z 27006KT 14/02 A3003 RMK A01 T01390015  RH  043%=      5-min Rain = 0
KWE2 131442Z 27006KT 14/02 A3003 RMK A01 T01400016  RH  043%=      5-min Rain = 0
KWE2 131443Z 27005KT 14/02 A3003 RMK A01 T01400016  RH  043%=      5-min Rain = 0
KWE2 131444Z 26006KT 14/02 A3003 RMK A01 T01410017  RH  043%=      5-min Rain = 0
KWE2 131445Z 27006KT 14/02 A3003 RMK A01 T01420017  RH  043%=      5-min Rain = 0
KWE2 131446Z 26005KT 14/02 A3003 RMK A01 T01420017  RH  043%=      5-min Rain = 0
KWE2 131447Z 27006KT 14/02 A3003 RMK A01 T01430018  RH  043%=      5-min Rain = 0
KWE2 131448Z 26007KT 15/02 A3003 RMK A01 T01450018  RH  042%=      5-min Rain = 0
KWE2 131449Z 26008KT 15/02 A3003 RMK A01 T01450018  RH  042%=      5-min Rain = 0
KWE2 131450Z 26007KT 15/02 A3003 RMK A01 T01460018  RH  042%=      5-min Rain = 0
KWE2 131451Z 26007KT 15/02 A3003 RMK A01 T01460019  RH  042%=      5-min Rain = 0
KWE2 131452Z 26006KT 15/02 A3003 RMK A01 T01470019  RH  042%=      5-min Rain = 0
KWE2 131453Z 27006KT 15/02 A3003 RMK A01 T01480021  RH  042%=      5-min Rain = 0
KWE2 131454Z 29006KT 15/02 A3003 RMK A01 T01500021  RH  042%=      5-min Rain = 0
KWE2 131455Z 28005KT 15/02 A3003 RMK A01 T01500021  RH  042%=      5-min Rain = 0
KWE2 131456Z 27006KT 15/02 A3003 RMK A01 T01500022  RH  042%=      5-min Rain = 0
KWE2 131457Z 27006KT 15/02 A3003 RMK A01 T01510022  RH  042%=      5-min Rain = 0
KWE2 131458Z 27007KT 15/02 A3003 RMK A01 T01510022  RH  042%=      5-min Rain = 0
KWE2 131459Z 26007KT 15/02 A3003 RMK A01 T01510022  RH  042%=      5-min Rain = 0
KWE2 131500Z 26006KT 15/02 A3003 RMK A01 T01520023  RH  042%=      5-min Rain = 0
KWE2 131501Z 26006KT 15/02 A3003 RMK A01 T01520023  RH  042%=      5-min Rain = 0
KWE2 131502Z 24007KT 15/02 A3003 RMK A01 T01530024  RH  042%=      5-min Rain = 0
KWE2 131503Z 24007KT 15/02 A3003 RMK A01 T01540024  RH  041%=      5-min Rain = 0
KWE2 131504Z 25007KT 16/02 A3003 RMK A01 T01550024  RH  041%=      5-min Rain = 0
KWE2 131505Z 26007KT 15/02 A3003 RMK A01 T01540024  RH  041%=      5-min Rain = 0
KWE2 131506Z 25007KT 16/02 A3003 RMK A01 T01550024  RH  041%=      5-min Rain = 0
KWE2 131507Z 24006KT 16/02 A3003 RMK A01 T01550024  RH  041%=      5-min Rain = 0
KWE2 131508Z 25006KT 16/03 A3003 RMK A01 T01560027  RH  042%=      5-min Rain = 0
KWE2 131509Z 25007KT 16/03 A3003 RMK A01 T01580027  RH  041%=      5-min Rain = 0
KWE2 131510Z 25007KT 16/03 A3003 RMK A01 T01590027  RH  041%=      5-min Rain = 0
KWE2 131511Z 25007KT 16/03 A3003 RMK A01 T01590026  RH  041%=      5-min Rain = 0
KWE2 131512Z 26007KT 16/03 A3003 RMK A01 T01590027  RH  041%=      5-min Rain = 0
KWE2 131513Z 26007KT 16/03 A3003 RMK A01 T01600027  RH  041%=      5-min Rain = 0
KWE2 131514Z 26006KT 16/03 A3003 RMK A01 T01610027  RH  041%=      5-min Rain = 0
KWE2 131515Z 27006KT 16/03 A3003 RMK A01 T01610028  RH  041%=      5-min Rain = 0
KWE2 131516Z 24005KT 16/03 A3003 RMK A01 T01630030  RH  041%=      5-min Rain = 0
KWE2 131517Z 24004KT 17/03 A3003 RMK A01 T01650030  RH  040%=      5-min Rain = 0
KWE2 131518Z 25005KT 17/03 A3003 RMK A01 T01660030  RH  040%=      5-min Rain = 0
KWE2 131519Z 24004KT 17/03 A3003 RMK A01 T01670031  RH  040%=      5-min Rain = 0
KWE2 131520Z 24004KT 17/03 A3003 RMK A01 T01680030  RH  039%=      5-min Rain = 0
KWE2 131521Z 24005KT 17/03 A3003 RMK A01 T01680031  RH  040%=      5-min Rain = 0
KWE2 131522Z 23006KT 17/03 A3003 RMK A01 T01690030  RH  039%=      5-min Rain = 0
KWE2 131523Z 25005KT 17/03 A3003 RMK A01 T01680030  RH  039%=      5-min Rain = 0
KWE2 131524Z 26004KT 17/03 A3003 RMK A01 T01690032  RH  040%=      5-min Rain = 0
KWE2 131525Z 25006KT 17/03 A3003 RMK A01 T01720034  RH  040%=      5-min Rain = 0
KWE2 131526Z 24005KT 17/03 A3003 RMK A01 T01740033  RH  039%=      5-min Rain = 0
KWE2 131527Z 23005KT 17/03 A3003 RMK A01 T01740033  RH  039%=      5-min Rain = 0
KWE2 131528Z 24006KT 18/03 A3003 RMK A01 T01750034  RH  039%=      5-min Rain = 0
KWE2 131529Z 25004KT 18/03 A3003 RMK A01 T01760034  RH  039%=      5-min Rain = 0
KWE2 131530Z 23005KT 18/03 A3003 RMK A01 T01770034  RH  039%=      5-min Rain = 0
KWE2 131531Z 23007KT 18/03 A3003 RMK A01 T01770034  RH  039%=      5-min Rain = 0
KWE2 131532Z 22006KT 18/04 A3003 RMK A01 T01780035  RH  039%=      5-min Rain = 0
KWE2 131533Z 23006KT 18/04 A3003 RMK A01 T01790036  RH  038%=      5-min Rain = 0
KWE2 131534Z 24005KT 18/04 A3003 RMK A01 T01810035  RH  038%=      5-min Rain = 0
KWE2 131535Z 24003KT 18/04 A3003 RMK A01 T01820035  RH  038%=      5-min Rain = 0
KWE2 131536Z 26003KT 18/04 A3003 RMK A01 T01820037  RH  038%=      5-min Rain = 0
KWE2 131537Z 26003KT 18/04 A3003 RMK A01 T01830036  RH  037%=      5-min Rain = 0
KWE2 131538Z 25003KT 18/04 A3003 RMK A01 T01840036  RH  037%=      5-min Rain = 0
KWE2 131539Z 27004KT 19/04 A3003 RMK A01 T01860037  RH  037%=      5-min Rain = 0
KWE2 131540Z 24004KT 19/04 A3003 RMK A01 T01860036  RH  037%=      5-min Rain = 0
KWE2 131541Z 23003KT 19/04 A3003 RMK A01 T01860036  RH  037%=      5-min Rain = 0
KWE2 131542Z 27004KT 19/04 A3003 RMK A01 T01870036  RH  037%=      5-min Rain = 0
KWE2 131543Z 27003KT 19/04 A3003 RMK A01 T01870036  RH  037%=      5-min Rain = 0
KWE2 131544Z 24004KT 19/04 A3003 RMK A01 T01880037  RH  037%=      5-min Rain = 0
KWE2 131545Z 24004KT 19/04 A3003 RMK A01 T01890036  RH  036%=      5-min Rain = 0
KWE2 131546Z 24003KT 19/04 A3003 RMK A01 T01890038  RH  037%=      5-min Rain = 0
KWE2 131547Z 26002KT 19/04 A3003 RMK A01 T01910039  RH  036%=      5-min Rain = 0
KWE2 131548Z 26004KT 19/04 A3003 RMK A01 T01930038  RH  036%=      5-min Rain = 0
KWE2 131549Z 24003KT 19/04 A3003 RMK A01 T01930037  RH  035%=      5-min Rain = 0
KWE2 131550Z 28004KT 19/04 A3003 RMK A01 T01930038  RH  036%=      5-min Rain = 0
KWE2 131551Z 29004KT 19/04 A3003 RMK A01 T01930036  RH  035%=      5-min Rain = 0
KWE2 131552Z 30003KT 19/04 A3003 RMK A01 T01930036  RH  035%=      5-min Rain = 0
KWE2 131553Z 31003KT 19/04 A3003 RMK A01 T01920036  RH  036%=      5-min Rain = 0
KWE2 131554Z 32004KT 19/04 A3003 RMK A01 T01930037  RH  036%=      5-min Rain = 0
KWE2 131555Z 32003KT 19/04 A3003 RMK A01 T01930036  RH  035%=      5-min Rain = 0
KWE2 131556Z 31003KT 19/04 A3003 RMK A01 T01930037  RH  035%=      5-min Rain = 0
KWE2 131557Z 25002KT 20/04 A3003 RMK A01 T01950038  RH  035%=      5-min Rain = 0
KWE2 131558Z 29004KT 20/04 A3003 RMK A01 T01960038  RH  035%=      5-min Rain = 0
KWE2 131559Z 29003KT 20/04 A3003 RMK A01 T01980038  RH  035%=      5-min Rain = 0
KWE2 131600Z 27003KT 20/04 A3003 RMK A01 T01990038  RH  034%=      5-min Rain = 0
KWE2 131601Z 29003KT 20/04 A3003 RMK A01 T01990037  RH  034%=      5-min Rain = 0
KWE2 131602Z 31002KT 20/04 A3003 RMK A01 T01990037  RH  034%=      5-min Rain = 0
KWE2 131603Z 33003KT 20/04 A3003 RMK A01 T01990036  RH  034%=      5-min Rain = 0
KWE2 131604Z 30003KT 20/04 A3003 RMK A01 T01980037  RH  035%=      5-min Rain = 0
KWE2 131605Z 27003KT 20/04 A3003 RMK A01 T01980037  RH  035%=      5-min Rain = 0
KWE2 131606Z 29002KT 20/04 A3003 RMK A01 T01980039  RH  035%=      5-min Rain = 0
KWE2 131607Z 29002KT 20/04 A3003 RMK A01 T01990037  RH  034%=      5-min Rain = 0
KWE2 131608Z 29002KT 20/04 A3003 RMK A01 T02000038  RH  034%=      5-min Rain = 0
KWE2 131609Z 26004KT 20/04 A3003 RMK A01 T02020040  RH  034%=      5-min Rain = 0
KWE2 131610Z 25003KT 20/04 A3003 RMK A01 T02030037  RH  034%=      5-min Rain = 0
KWE2 131611Z 26003KT 20/04 A3003 RMK A01 T02030038  RH  034%=      5-min Rain = 0
KWE2 131612Z 23003KT 20/04 A3003 RMK A01 T02030039  RH  034%=      5-min Rain = 0
KWE2 131613Z 19002KT 20/04 A3003 RMK A01 T02040039  RH  034%=      5-min Rain = 0
KWE2 131614Z 25004KT 21/04 A3003 RMK A01 T02060040  RH  034%=      5-min Rain = 0
KWE2 131615Z 26004KT 21/04 A3003 RMK A01 T02070039  RH  033%=      5-min Rain = 0
KWE2 131616Z 24003KT 21/04 A3003 RMK A01 T02070039  RH  033%=      5-min Rain = 0
KWE2 131617Z 29002KT 21/04 A3003 RMK A01 T02070039  RH  033%=      5-min Rain = 0
KWE2 131618Z 29003KT 21/04 A3003 RMK A01 T02070038  RH  033%=      5-min Rain = 0
KWE2 131619Z 26003KT 21/04 A3003 RMK A01 T02070038  RH  033%=      5-min Rain = 0
KWE2 131620Z 25004KT 21/04 A3003 RMK A01 T02070040  RH  033%=      5-min Rain = 0
KWE2 131621Z 26004KT 21/04 A3003 RMK A01 T02080039  RH  033%=      5-min Rain = 0
KWE2 131622Z 26004KT 21/04 A3003 RMK A01 T02080040  RH  033%=      5-min Rain = 0
KWE2 131623Z 25003KT 21/04 A3003 RMK A01 T02090040  RH  033%=      5-min Rain = 0
KWE2 131624Z 27002KT 21/04 A3003 RMK A01 T02100041  RH  033%=      5-min Rain = 0
KWE2 131625Z 26002KT 21/04 A3003 RMK A01 T02110041  RH  033%=      5-min Rain = 0
KWE2 131626Z 25002KT 21/04 A3003 RMK A01 T02120040  RH  032%=      5-min Rain = 0
KWE2 131627Z 21004KT 21/04 A3003 RMK A01 T02130042  RH  033%=      5-min Rain = 0
KWE2 131628Z 24004KT 21/04 A3003 RMK A01 T02140043  RH  033%=      5-min Rain = 0
KWE2 131629Z 21005KT 22/04 A3003 RMK A01 T02160044  RH  032%=      5-min Rain = 0
KWE2 131630Z 20004KT 22/04 A3003 RMK A01 T02160043  RH  032%=      5-min Rain = 0
KWE2 131631Z 17005KT 22/04 A3003 RMK A01 T02170043  RH  032%=      5-min Rain = 0
KWE2 131632Z 17002KT 22/04 A3003 RMK A01 T02170042  RH  032%=      5-min Rain = 0
KWE2 131633Z 22002KT 22/04 A3003 RMK A01 T02170044  RH  032%=      5-min Rain = 0
KWE2 131634Z 26004KT 22/04 A3003 RMK A01 T02180043  RH  032%=      5-min Rain = 0
KWE2 131635Z 24003KT 22/04 A3003 RMK A01 T02200043  RH  032%=      5-min Rain = 0
KWE2 131636Z 24003KT 22/04 A3003 RMK A01 T02210043  RH  031%=      5-min Rain = 0
KWE2 131637Z 26003KT 22/05 A3003 RMK A01 T02210045  RH  032%=      5-min Rain = 0
KWE2 131638Z 26004KT 22/04 A3003 RMK A01 T02220044  RH  031%=      5-min Rain = 0
KWE2 131639Z 26003KT 22/04 A3003 RMK A01 T02220044  RH  031%=      5-min Rain = 0
KWE2 131640Z 29003KT 22/04 A3003 RMK A01 T02220044  RH  031%=      5-min Rain = 0
KWE2 131641Z 22003KT 22/05 A3003 RMK A01 T02230046  RH  031%=      5-min Rain = 0
KWE2 131642Z 23001KT 22/04 A3003 RMK A01 T02240043  RH  031%=      5-min Rain = 0
KWE2 131643Z 22003KT 23/05 A3003 RMK A01 T02250045  RH  031%=      5-min Rain = 0
KWE2 131644Z 23005KT 23/05 A3003 RMK A01 T02270046  RH  031%=      5-min Rain = 0
KWE2 131645Z 24005KT 23/05 A3003 RMK A01 T02280045  RH  030%=      5-min Rain = 0
KWE2 131646Z 23003KT 23/05 A3003 RMK A01 T02280047  RH  031%=      5-min Rain = 0
KWE2 131647Z 22005KT 23/05 A3003 RMK A01 T02300046  RH  030%=      5-min Rain = 0
KWE2 131648Z 22003KT 23/04 A3003 RMK A01 T02290044  RH  030%=      5-min Rain = 0
KWE2 131649Z 21004KT 23/05 A3003 RMK A01 T02270046  RH  031%=      5-min Rain = 0
KWE2 131650Z 23004KT 23/05 A3003 RMK A01 T02280046  RH  031%=      5-min Rain = 0
KWE2 131651Z 24004KT 23/05 A3003 RMK A01 T02300047  RH  030%=      5-min Rain = 0
KWE2 131652Z 25005KT 23/05 A3003 RMK A01 T02320046  RH  030%=      5-min Rain = 0
KWE2 131653Z 22003KT 23/04 A3003 RMK A01 T02300044  RH  030%=      5-min Rain = 0
KWE2 131654Z 21003KT 23/05 A3003 RMK A01 T02290045  RH  030%=      5-min Rain = 0
KWE2 131655Z 19002KT 23/05 A3003 RMK A01 T02290045  RH  030%=      5-min Rain = 0
KWE2 131656Z 22006KT 23/05 A3003 RMK A01 T02300046  RH  030%=      5-min Rain = 0
KWE2 131657Z 23004KT 23/05 A3003 RMK A01 T02320046  RH  030%=      5-min Rain = 0
KWE2 131658Z 24002KT 23/05 A3003 RMK A01 T02310046  RH  030%=      5-min Rain = 0
KWE2 131659Z 20004KT 23/05 A3003 RMK A01 T02310048  RH  030%=      5-min Rain = 0
KWE2 131700Z 23004KT 23/05 A3003 RMK A01 T02330047  RH  030%=      5-min Rain = 0
KWE2 131701Z 26005KT 23/05 A3003 RMK A01 T02340046  RH  030%=      5-min Rain = 0
KWE2 131702Z 25004KT 24/05 A3003 RMK A01 T02350046  RH  029%=      5-min Rain = 0
KWE2 131703Z 25003KT 23/04 A3003 RMK A01 T02340044  RH  029%=      5-min Rain = 0
KWE2 131704Z 18003KT 23/05 A3003 RMK A01 T02330046  RH  030%=      5-min Rain = 0
KWE2 131705Z 13001KT 23/05 A3003 RMK A01 T02330045  RH  029%=      5-min Rain = 0
KWE2 131706Z 16000KT 23/05 A3003 RMK A01 T02340045  RH  029%=      5-min Rain = 0
KWE2 131707Z 25004KT 24/05 A3003 RMK A01 T02350046  RH  029%=      5-min Rain = 0
KWE2 131708Z 25006KT 24/05 A3003 RMK A01 T02360047  RH  029%=      5-min Rain = 0
KWE2 131709Z 25006KT 24/05 A3003 RMK A01 T02370046  RH  029%=      5-min Rain = 0
KWE2 131710Z 24004KT 24/05 A3003 RMK A01 T02350046  RH  029%=      5-min Rain = 0
KWE2 131711Z 23004KT 24/05 A3003 RMK A01 T02350047  RH  029%=      5-min Rain = 0
KWE2 131712Z 22005KT 24/05 A3003 RMK A01 T02360046  RH  029%=      5-min Rain = 0
KWE2 131713Z 21002KT 24/05 A3003 RMK A01 T02360047  RH  029%=      5-min Rain = 0
KWE2 131714Z 24004KT 24/05 A3003 RMK A01 T02380049  RH  029%=      5-min Rain = 0
KWE2 131715Z 26004KT 24/05 A3003 RMK A01 T02410049  RH  029%=      5-min Rain = 0
KWE2 131716Z 25005KT 24/05 A3003 RMK A01 T02410048  RH  029%=      5-min Rain = 0
KWE2 131717Z 24003KT 24/05 A3003 RMK A01 T02410048  RH  029%=      5-min Rain = 0
KWE2 131718Z 23006KT 24/05 A3003 RMK A01 T02400047  RH  029%=      5-min Rain = 0
KWE2 131719Z 23003KT 24/05 A3003 RMK A01 T02390047  RH  029%=      5-min Rain = 0
KWE2 131720Z 24004KT 24/05 A3003 RMK A01 T02400048  RH  029%=      5-min Rain = 0
KWE2 131721Z 24005KT 24/05 A3003 RMK A01 T02410048  RH  029%=      5-min Rain = 0
KWE2 131722Z 24007KT 24/05 A3003 RMK A01 T02420048  RH  029%=      5-min Rain = 0
KWE2 131723Z 24003KT 24/05 A3003 RMK A01 T02420046  RH  028%=      5-min Rain = 0
KWE2 131724Z 24005KT 24/05 A3003 RMK A01 T02410048  RH  029%=      5-min Rain = 0
KWE2 131725Z 23006KT 24/05 A3002 RMK A01 T02410049  RH  029%=      5-min Rain = 0
KWE2 131726Z 24006KT 24/05 A3002 RMK A01 T02440051  RH  029%=      5-min Rain = 0
KWE2 131727Z 25005KT 24/05 A3002 RMK A01 T02440049  RH  028%=      5-min Rain = 0
KWE2 131728Z 26005KT 24/05 A3002 RMK A01 T02440049  RH  028%=      5-min Rain = 0
KWE2 131729Z 26002KT 24/05 A3002 RMK A01 T02440048  RH  028%=      5-min Rain = 0
KWE2 131730Z 24003KT 24/05 A3002 RMK A01 T02440049  RH  028%=      5-min Rain = 0
KWE2 131731Z 29004KT 24/05 A3002 RMK A01 T02440050  RH  029%=      5-min Rain = 0
KWE2 131732Z 28007KT 25/05 A3002 RMK A01 T02460050  RH  028%=      5-min Rain = 0
KWE2 131733Z 28006KT 25/05 A3002 RMK A01 T02480048  RH  028%=      5-min Rain = 0
KWE2 131734Z 30005KT 25/05 A3002 RMK A01 T02480049  RH  028%=      5-min Rain = 0
KWE2 131735Z 32005KT 25/05 A3002 RMK A01 T02460047  RH  028%=      5-min Rain = 0
KWE2 131736Z 34004KT 25/05 A3002 RMK A01 T02450048  RH  028%=      5-min Rain = 0
KWE2 131737Z 32003KT 25/05 A3002 RMK A01 T02450049  RH  028%=      5-min Rain = 0
KWE2 131738Z 27003KT 25/05 A3002 RMK A01 T02460049  RH  028%=      5-min Rain = 0
KWE2 131739Z 25006KT 25/05 A3002 RMK A01 T02460050  RH  028%=      5-min Rain = 0
KWE2 131740Z 29003KT 25/05 A3002 RMK A01 T02470050  RH  028%=      5-min Rain = 0
KWE2 131741Z 28004KT 25/05 A3002 RMK A01 T02480050  RH  028%=      5-min Rain = 0
KWE2 131742Z 30003KT 25/05 A3002 RMK A01 T02490050  RH  028%=      5-min Rain = 0
KWE2 131743Z 30002KT 25/05 A3002 RMK A01 T02500050  RH  028%=      5-min Rain = 0
KWE2 131744Z 32001KT 25/05 A3002 RMK A01 T02500050  RH  027%=      5-min Rain = 0
KWE2 131745Z 30001KT 25/05 A3002 RMK A01 T02520050  RH  027%=      5-min Rain = 0
KWE2 131746Z 24004KT 25/05 A3002 RMK A01 T02530050  RH  027%=      5-min Rain = 0
KWE2 131747Z 24005KT 25/05 A3002 RMK A01 T02530049  RH  027%=      5-min Rain = 0
KWE2 131748Z 26003KT 25/05 A3002 RMK A01 T02540049  RH  027%=      5-min Rain = 0
KWE2 131749Z 28007G12KT 26/05 A3002 RMK A01 T02550049  RH  027%=      5-min Rain = 0
KWE2 131750Z 24004KT 26/05 A3002 RMK A01 T02550049  RH  026%=      5-min Rain = 0
KWE2 131751Z 25003KT 26/05 A3001 RMK A01 T02550051  RH  027%=      5-min Rain = 0
KWE2 131752Z 26006KT 26/05 A3001 RMK A01 T02580051  RH  026%=      5-min Rain = 0
KWE2 131753Z 25006KT 26/05 A3002 RMK A01 T02590049  RH  026%=      5-min Rain = 0
KWE2 131754Z 27008KT 26/05 A3001 RMK A01 T02580049  RH  026%=      5-min Rain = 0
KWE2 131755Z 29006KT 26/05 A3001 RMK A01 T02580050  RH  026%=      5-min Rain = 0
KWE2 131756Z 29005KT 26/05 A3001 RMK A01 T02590048  RH  026%=      5-min Rain = 0
KWE2 131757Z 27005KT 26/05 A3001 RMK A01 T02570048  RH  026%=      5-min Rain = 0
KWE2 131758Z 28004KT 26/05 A3001 RMK A01 T02560048  RH  026%=      5-min Rain = 0
KWE2 131759Z 27005KT 26/05 A3001 RMK A01 T02570049  RH  026%=      5-min Rain = 0
KWE2 131800Z 25003KT 26/05 A3001 RMK A01 T02560048  RH  026%=      5-min Rain = 0
KWE2 131801Z 25003KT 26/05 A3001 RMK A01 T02560051  RH  027%=      5-min Rain = 0
KWE2 131802Z 28006KT 26/05 A3001 RMK A01 T02580051  RH  026%=      5-min Rain = 0
KWE2 131803Z 29006KT 26/05 A3001 RMK A01 T02600050  RH  026%=      5-min Rain = 0
KWE2 131804Z 27005KT 26/05 A3001 RMK A01 T02610051  RH  026%=      5-min Rain = 0
KWE2 131805Z 27006KT 26/05 A3001 RMK A01 T02630050  RH  026%=      5-min Rain = 0
KWE2 131806Z 26006KT 26/05 A3001 RMK A01 T02620049  RH  025%=      5-min Rain = 0
KWE2 131807Z 25004KT 26/05 A3001 RMK A01 T02600049  RH  026%=      5-min Rain = 0
KWE2 131808Z 27005KT 26/05 A3001 RMK A01 T02620051  RH  026%=      5-min Rain = 0
KWE2 131809Z 26006KT 26/05 A3001 RMK A01 T02640048  RH  025%=      5-min Rain = 0
KWE2 131810Z 25006KT 26/05 A3001 RMK A01 T02620048  RH  025%=      5-min Rain = 0
KWE2 131811Z 23003KT 26/05 A3001 RMK A01 T02600046  RH  025%=      5-min Rain = 0
KWE2 131812Z 22002KT 26/05 A3001 RMK A01 T02580047  RH  026%=      5-min Rain = 0
KWE2 131813Z 23003KT 26/05 A3001 RMK A01 T02590048  RH  026%=      5-min Rain = 0
KWE2 131814Z 26003KT 26/05 A3001 RMK A01 T02610050  RH  026%=      5-min Rain = 0
KWE2 131815Z 30001KT 26/05 A3001 RMK A01 T02610051  RH  026%=      5-min Rain = 0
KWE2 131816Z 25002KT 26/05 A3001 RMK A01 T02630051  RH  026%=      5-min Rain = 0
KWE2 131817Z 23005KT 27/05 A3001 RMK A01 T02660054  RH  026%=      5-min Rain = 0
KWE2 131818Z 24007KT 27/05 A3001 RMK A01 T02690052  RH  025%=      5-min Rain = 0
KWE2 131819Z 22003KT 27/05 A3001 RMK A01 T02650048  RH  025%=      5-min Rain = 0
KWE2 131820Z 19004KT 26/05 A3001 RMK A01 T02630050  RH  025%=      5-min Rain = 0
KWE2 131821Z 18002KT 26/05 A3001 RMK A01 T02630048  RH  025%=      5-min Rain = 0
KWE2 131822Z 17002KT 26/05 A30 RMK A01 T02630049  RH  025%=      5-min Rain = 0
KWE2 131823Z 22003KT 27/05 A30 RMK A01 T02660052  RH  025%=      5-min Rain = 0
KWE2 131824Z 24002KT 27/05 A30 RMK A01 T02680052  RH  025%=      5-min Rain = 0
KWE2 131825Z 20001KT 27/05 A30 RMK A01 T02690051  RH  025%=      5-min Rain = 0
KWE2 131826Z 24005KT 27/05 A30 RMK A01 T02680052  RH  025%=      5-min Rain = 0
KWE2 131827Z 22004KT 27/05 A30 RMK A01 T02680052  RH  025%=      5-min Rain = 0
KWE2 131828Z 21005KT 27/05 A30 RMK A01 T02680050  RH  025%=      5-min Rain = 0
KWE2 131829Z 23002KT 27/05 A30 RMK A01 T02690052  RH  025%=      5-min Rain = 0
KWE2 131830Z 27004KT 27/05 A30 RMK A01 T02700049  RH  024%=      5-min Rain = 0
KWE2 131831Z 26004KT 27/05 A30 RMK A01 T02700049  RH  024%=      5-min Rain = 0
KWE2 131832Z 27001KT 27/05 A30 RMK A01 T02690048  RH  024%=      5-min Rain = 0
KWE2 131833Z 35001KT 27/05 A30 RMK A01 T02690049  RH  024%=      5-min Rain = 0
KWE2 131834Z 28000KT 27/05 A30 RMK A01 T02700050  RH  024%=      5-min Rain = 0
KWE2 131835Z 29003KT 27/05 A2999 RMK A01 T02720049  RH  024%=      5-min Rain = 0
KWE2 131836Z 25001KT 27/05 A2999 RMK A01 T02720050  RH  024%=      5-min Rain = 0
KWE2 131837Z 34003KT 27/05 A2999 RMK A01 T02720051  RH  024%=      5-min Rain = 0
KWE2 131838Z 36003KT 27/05 A2999 RMK A01 T02720048  RH  024%=      5-min Rain = 0
KWE2 131839Z 02003KT 27/05 A2999 RMK A01 T02710051  RH  024%=      5-min Rain = 0
KWE2 131840Z 35001KT 27/05 A2999 RMK A01 T02720050  RH  024%=      5-min Rain = 0
KWE2 131841Z 29002KT 27/05 A2999 RMK A01 T02730049  RH  024%=      5-min Rain = 0
KWE2 131842Z 26002KT 27/05 A2999 RMK A01 T02730051  RH  024%=      5-min Rain = 0
KWE2 131843Z 25003KT 27/05 A2999 RMK A01 T02740051  RH  024%=      5-min Rain = 0
KWE2 131844Z 24003KT 28/05 A2999 RMK A01 T02760050  RH  024%=      5-min Rain = 0
KWE2 131845Z 26004KT 28/05 A2999 RMK A01 T02750048  RH  024%=      5-min Rain = 0
KWE2 131846Z 24004KT 27/05 A2999 RMK A01 T02730049  RH  024%=      5-min Rain = 0
KWE2 131847Z 26003KT 27/05 A2999 RMK A01 T02730049  RH  024%=      5-min Rain = 0
KWE2 131848Z 26003KT 27/05 A2999 RMK A01 T02740048  RH  024%=      5-min Rain = 0
KWE2 131849Z 27002KT 27/05 A2999 RMK A01 T02730049  RH  024%=      5-min Rain = 0
KWE2 131850Z 25002KT 27/05 A2999 RMK A01 T02740050  RH  024%=      5-min Rain = 0
KWE2 131851Z 25003KT 28/05 A2999 RMK A01 T02750050  RH  024%=      5-min Rain = 0
KWE2 131852Z 28003KT 28/05 A2999 RMK A01 T02750050  RH  024%=      5-min Rain = 0
KWE2 131853Z 27004KT 28/05 A2999 RMK A01 T02760052  RH  024%=      5-min Rain = 0
KWE2 131854Z 28007KT 28/05 A2999 RMK A01 T02780050  RH  023%=      5-min Rain = 0
KWE2 131855Z 24008KT 28/05 A2999 RMK A01 T02800049  RH  023%=      5-min Rain = 0
KWE2 131856Z 22009KT 28/05 A2998 RMK A01 T02800050  RH  023%=      5-min Rain = 0
KWE2 131857Z 22008KT 28/05 A2999 RMK A01 T02830050  RH  023%=      5-min Rain = 0
KWE2 131858Z 22005KT 28/05 A2999 RMK A01 T02840048  RH  022%=      5-min Rain = 0
KWE2 131859Z 21004KT 28/05 A2998 RMK A01 T02800046  RH  022%=      5-min Rain = 0
KWE2 131900Z 23006KT 28/05 A2998 RMK A01 T02790048  RH  023%=      5-min Rain = 0
KWE2 131901Z 22004KT 28/05 A2998 RMK A01 T02780047  RH  023%=      5-min Rain = 0
KWE2 131902Z 21002KT 28/05 A2998 RMK A01 T02780048  RH  023%=      5-min Rain = 0
KWE2 131903Z 25003KT 28/05 A2998 RMK A01 T02780049  RH  023%=      5-min Rain = 0
KWE2 131904Z 23002KT 28/05 A2998 RMK A01 T02790048  RH  023%=      5-min Rain = 0
KWE2 131905Z 27008KT 28/05 A2998 RMK A01 T02790048  RH  023%=      5-min Rain = 0
KWE2 131906Z 28006KT 28/04 A2998 RMK A01 T02800044  RH  022%=      5-min Rain = 0
KWE2 131907Z 32007KT 28/04 A2998 RMK A01 T02820044  RH  022%=      5-min Rain = 0
KWE2 131908Z 32005KT 28/04 A2998 RMK A01 T02830043  RH  022%=      5-min Rain = 0
KWE2 131909Z 31004KT 28/04 A2998 RMK A01 T02820044  RH  022%=      5-min Rain = 0
KWE2 131910Z 28004KT 28/04 A2998 RMK A01 T02820044  RH  022%=      5-min Rain = 0
KWE2 131911Z 24005KT 28/05 A2998 RMK A01 T02820046  RH  022%=      5-min Rain = 0
KWE2 131912Z 25004KT 28/05 A2998 RMK A01 T02830045  RH  022%=      5-min Rain = 0
KWE2 131913Z 26003KT 29/05 A2998 RMK A01 T02850045  RH  022%=      5-min Rain = 0
KWE2 131914Z 25002KT 28/04 A2998 RMK A01 T02840044  RH  022%=      5-min Rain = 0
KWE2 131915Z 15001KT 28/05 A2997 RMK A01 T02840045  RH  022%=      5-min Rain = 0
KWE2 131916Z 30006KT 28/05 A2997 RMK A01 T02840045  RH  022%=      5-min Rain = 0
KWE2 131917Z 32006KT 29/04 A2997 RMK A01 T02870042  RH  021%=      5-min Rain = 0
KWE2 131918Z 32004KT 29/04 A2997 RMK A01 T02860044  RH  021%=      5-min Rain = 0
KWE2 131919Z 32003KT 29/04 A2997 RMK A01 T02850038  RH  021%=      5-min Rain = 0
KWE2 131920Z 33001KT 28/04 A2997 RMK A01 T02820039  RH  021%=      5-min Rain = 0
KWE2 131921Z 22001KT 28/05 A2997 RMK A01 T02820046  RH  022%=      5-min Rain = 0
KWE2 131922Z 23006KT 29/05 A2997 RMK A01 T02850046  RH  022%=      5-min Rain = 0
KWE2 131923Z 24007KT 29/05 A2997 RMK A01 T02850046  RH  022%=      5-min Rain = 0
KWE2 131924Z 24006KT 29/05 A2997 RMK A01 T02870045  RH  021%=      5-min Rain = 0
KWE2 131925Z 22005KT 29/05 A2997 RMK A01 T02870045  RH  021%=      5-min Rain = 0
KWE2 131926Z 23007KT 29/05 A2997 RMK A01 T02880048  RH  022%=      5-min Rain = 0
KWE2 131927Z 24007KT 29/05 A2997 RMK A01 T02920050  RH  022%=      5-min Rain = 0
KWE2 131928Z 22005KT 29/05 A2997 RMK A01 T02910048  RH  021%=      5-min Rain = 0
KWE2 131929Z 22004KT 29/05 A2997 RMK A01 T02880046  RH  021%=      5-min Rain = 0
KWE2 131930Z 25005KT 29/05 A2997 RMK A01 T02860046  RH  022%=      5-min Rain = 0
KWE2 131931Z 24008KT 29/04 A2997 RMK A01 T02860044  RH  021%=      5-min Rain = 0
KWE2 131932Z 24007KT 29/04 A2997 RMK A01 T02850041  RH  021%=      5-min Rain = 0
KWE2 131933Z 28005KT 28/04 A2997 RMK A01 T02830039  RH  021%=      5-min Rain = 0
KWE2 131934Z 30002KT 28/04 A2997 RMK A01 T02830038  RH  021%=      5-min Rain = 0
KWE2 131935Z 33001KT 28/04 A2996 RMK A01 T02840039  RH  021%=      5-min Rain = 0
KWE2 131936Z 22005KT 29/04 A2996 RMK A01 T02850043  RH  021%=      5-min Rain = 0
KWE2 131937Z 20006KT 29/04 A2996 RMK A01 T02870041  RH  021%=      5-min Rain = 0
KWE2 131938Z 21006KT 29/04 A2996 RMK A01 T02880041  RH  021%=      5-min Rain = 0
KWE2 131939Z 25004KT 29/04 A2996 RMK A01 T02880042  RH  021%=      5-min Rain = 0
KWE2 131940Z 29005KT 29/04 A2996 RMK A01 T02890042  RH  021%=      5-min Rain = 0
KWE2 131941Z 23006KT 29/04 A2996 RMK A01 T02910043  RH  021%=      5-min Rain = 0
KWE2 131942Z 25011KT 30/04 A2996 RMK A01 T02960043  RH  020%=      5-min Rain = 0
KWE2 131943Z 25011KT 30/04 A2996 RMK A01 T02960038  RH  019%=      5-min Rain = 0
KWE2 131944Z 25009KT 29/04 A2996 RMK A01 T02920036  RH  020%=      5-min Rain = 0
KWE2 131945Z 28005KT 29/04 A2996 RMK A01 T02910037  RH  020%=      5-min Rain = 0
KWE2 131946Z 27005KT 29/04 A2996 RMK A01 T02900037  RH  020%=      5-min Rain = 0
KWE2 131947Z 26006KT 29/04 A2996 RMK A01 T02900037  RH  020%=      5-min Rain = 0
KWE2 131948Z 28004KT 29/04 A2996 RMK A01 T02910037  RH  020%=      5-min Rain = 0
KWE2 131949Z 29005KT 29/04 A2996 RMK A01 T02910036  RH  020%=      5-min Rain = 0
KWE2 131950Z 27006KT 29/04 A2996 RMK A01 T02900038  RH  020%=      5-min Rain = 0
KWE2 131951Z 26008KT 29/03 A2996 RMK A01 T02910034  RH  019%=      5-min Rain = 0
KWE2 131952Z 25006KT 29/03 A2996 RMK A01 T02910030  RH  019%=      5-min Rain = 0
KWE2 131953Z 22003KT 29/03 A2996 RMK A01 T02900030  RH  019%=      5-min Rain = 0
KWE2 131954Z 22005KT 29/03 A2996 RMK A01 T02900034  RH  019%=      5-min Rain = 0
KWE2 131955Z 22003KT 29/03 A2996 RMK A01 T02890033  RH  019%=      5-min Rain = 0
KWE2 131956Z 24003KT 29/03 A2996 RMK A01 T02890032  RH  019%=      5-min Rain = 0
KWE2 131957Z 23000KT 29/03 A2996 RMK A01 T02880033  RH  019%=      5-min Rain = 0
KWE2 131958Z 19000KT 29/04 A2996 RMK A01 T02890035  RH  020%=      5-min Rain = 0
KWE2 131959Z 28003KT 29/04 A2995 RMK A01 T02900036  RH  020%=      5-min Rain = 0
KWE2 132000Z 31002KT 29/04 A2995 RMK A01 T02910037  RH  020%=      5-min Rain = 0
KWE2 132001Z 34001KT 29/04 A2995 RMK A01 T02900037  RH  020%=      5-min Rain = 0
KWE2 132002Z 04001KT 29/04 A2995 RMK A01 T02900038  RH  020%=      5-min Rain = 0
KWE2 132003Z 08002KT 29/04 A2995 RMK A01 T02900036  RH  020%=      5-min Rain = 0
KWE2 132004Z 15004G9KT 29/04 A2995 RMK A01 T02900035  RH  020%=      5-min Rain = 0
KWE2 132005Z 14005KT 29/04 A2995 RMK A01 T02920037  RH  020%=      5-min Rain = 0
KWE2 132006Z 13004KT 29/03 A2995 RMK A01 T02930031  RH  019%=      5-min Rain = 0
KWE2 132007Z 15002KT 29/03 A2995 RMK A01 T02920032  RH  019%=      5-min Rain = 0
KWE2 132008Z 17005KT 29/03 A2995 RMK A01 T02930034  RH  019%=      5-min Rain = 0
KWE2 132009Z 20003KT 30/03 A2995 RMK A01 T02950031  RH  019%=      5-min Rain = 0
KWE2 132010Z 22003KT 30/03 A2995 RMK A01 T02960027  RH  018%=      5-min Rain = 0
KWE2 132011Z 20003KT 30/03 A2995 RMK A01 T02960026  RH  018%=      5-min Rain = 0
KWE2 132012Z 21003KT 30/03 A2995 RMK A01 T02950026  RH  018%=      5-min Rain = 0
KWE2 132013Z 22002KT 29/02 A2995 RMK A01 T02940023  RH  018%=      5-min Rain = 0
KWE2 132014Z 24002KT 29/02 A2995 RMK A01 T02930023  RH  018%=      5-min Rain = 0
KWE2 132015Z 24006KT 29/03 A2995 RMK A01 T02940034  RH  019%=      5-min Rain = 0
KWE2 132016Z 26006KT 30/04 A2995 RMK A01 T02980041  RH  019%=      5-min Rain = 0
KWE2 132017Z 26011KT 30/03 A2995 RMK A01 T03000032  RH  018%=      5-min Rain = 0
KWE2 132018Z 26009KT 30/02 A2995 RMK A01 T03000020  RH  017%=      5-min Rain = 0
KWE2 132019Z 26008KT 30/02 A2995 RMK A01 T03000017  RH  016%=      5-min Rain = 0
KWE2 132020Z 28009KT 30/02 A2995 RMK A01 T02980018  RH  017%=      5-min Rain = 0
KWE2 132021Z 29010KT 30/02 A2995 RMK A01 T02980020  RH  017%=      5-min Rain = 0
KWE2 132022Z 30009KT 30/02 A2995 RMK A01 T02980016  RH  016%=      5-min Rain = 0
KWE2 132023Z 31007KT 30/01 A2995 RMK A01 T02980014  RH  016%=      5-min Rain = 0
KWE2 132024Z 28006KT 30/02 A2995 RMK A01 T02960016  RH  017%=      5-min Rain = 0
KWE2 132025Z 27013KT 30/02 A2995 RMK A01 T02950019  RH  017%=      5-min Rain = 0
KWE2 132026Z 29012KT 30/02 A2995 RMK A01 T02970017  RH  017%=      5-min Rain = 0
KWE2 132027Z 30011KT 30/02 A2995 RMK A01 T02960017  RH  017%=      5-min Rain = 0
KWE2 132028Z 27011KT 30/02 A2995 RMK A01 T02970017  RH  017%=      5-min Rain = 0
KWE2 132029Z 27008KT 30/02 A2995 RMK A01 T02980016  RH  016%=      5-min Rain = 0
KWE2 132030Z 29008KT 30/02 A2995 RMK A01 T02990017  RH  016%=      5-min Rain = 0
KWE2 132031Z 29005KT 30/02 A2995 RMK A01 T02990015  RH  016%=      5-min Rain = 0
KWE2 132032Z 29007KT 30/02 A2995 RMK A01 T02980017  RH  016%=      5-min Rain = 0
KWE2 132033Z 29010KT 30/02 A2995 RMK A01 T02990017  RH  016%=      5-min Rain = 0
KWE2 132034Z 30007KT 30/02 A2995 RMK A01 T02980015  RH  016%=      5-min Rain = 0
KWE2 132035Z 30005KT 30/02 A2995 RMK A01 T02960016  RH  017%=      5-min Rain = 0
KWE2 132036Z 27006KT 29/02 A2995 RMK A01 T02940021  RH  017%=      5-min Rain = 0
KWE2 132037Z 27005KT 29/02 A2995 RMK A01 T02930022  RH  017%=      5-min Rain = 0
KWE2 132038Z 30005KT 29/02 A2995 RMK A01 T02930023  RH  018%=      5-min Rain = 0
KWE2 132039Z 30006KT 30/02 A2995 RMK A01 T02950023  RH  018%=      5-min Rain = 0
KWE2 132040Z 30005KT 30/03 A2995 RMK A01 T02950026  RH  018%=      5-min Rain = 0
KWE2 132041Z 30005KT 30/03 A2995 RMK A01 T02960026  RH  018%=      5-min Rain = 0
KWE2 132042Z 29006KT 30/02 A2995 RMK A01 T02950023  RH  017%=      5-min Rain = 0
KWE2 132043Z 33004KT 30/02 A2995 RMK A01 T02960019  RH  017%=      5-min Rain = 0
KWE2 132044Z 31004KT 30/02 A2994 RMK A01 T02960015  RH  016%=      5-min Rain = 0
KWE2 132045Z 28008KT 30/02 A2995 RMK A01 T02960016  RH  016%=      5-min Rain = 0
KWE2 132046Z 29007KT 30/01 A2994 RMK A01 T02970012  RH  016%=      5-min Rain = 0
KWE2 132047Z 30008KT 30/01 A2994 RMK A01 T02970010  RH  016%=      5-min Rain = 0
KWE2 132048Z 30007KT 30/01 A2994 RMK A01 T02960009  RH  016%=      5-min Rain = 0
KWE2 132049Z 29006KT 30/01 A2994 RMK A01 T02950009  RH  016%=      5-min Rain = 0
KWE2 132050Z 29004KT 29/01 A2994 RMK A01 T02940010  RH  016%=      5-min Rain = 0
KWE2 132051Z 28004KT 29/01 A2994 RMK A01 T02940011  RH  016%=      5-min Rain = 0
KWE2 132052Z 27005KT 30/01 A2994 RMK A01 T02950012  RH  016%=      5-min Rain = 0
KWE2 132053Z 26010KT 30/02 A2994 RMK A01 T02950016  RH  017%=      5-min Rain = 0
KWE2 132054Z 28008KT 30/02 A2994 RMK A01 T02960019  RH  017%=      5-min Rain = 0
KWE2 132055Z 29005KT 30/02 A2994 RMK A01 T02950018  RH  017%=      5-min Rain = 0
KWE2 132056Z 27006KT 29/02 A2994 RMK A01 T02940019  RH  017%=      5-min Rain = 0
KWE2 132057Z 27006KT 29/02 A2994 RMK A01 T02940020  RH  017%=      5-min Rain = 0
KWE2 132058Z 27006KT 30/02 A2994 RMK A01 T02950019  RH  017%=      5-min Rain = 0
KWE2 132059Z 28005KT 29/02 A2994 RMK A01 T02940019  RH  017%=      5-min Rain = 0
KWE2 132100Z 27004KT 29/02 A2994 RMK A01 T02940020  RH  017%=      5-min Rain = 0
KWE2 132101Z 24004KT 30/02 A2994 RMK A01 T02960022  RH  017%=      5-min Rain = 0
KWE2 132102Z 22006KT 30/04 A2994 RMK A01 T02970037  RH  019%=      5-min Rain = 0
KWE2 132103Z 23005KT 30/04 A2994 RMK A01 T02970036  RH  019%=      5-min Rain = 0
KWE2 132104Z 23004KT 30/03 A2994 RMK A01 T02960034  RH  019%=      5-min Rain = 0
KWE2 132105Z 22007KT 30/04 A2994 RMK A01 T02960037  RH  019%=      5-min Rain = 0
KWE2 132106Z 22009G14KT 30/04 A2994 RMK A01 T02970036  RH  019%=      5-min Rain = 0
KWE2 132107Z 23011KT 30/03 A2994 RMK A01 T02980033  RH  018%=      5-min Rain = 0
KWE2 132108Z 23012KT 30/03 A2994 RMK A01 T02970032  RH  018%=      5-min Rain = 0
KWE2 132109Z 25008KT 30/03 A2994 RMK A01 T02970029  RH  018%=      5-min Rain = 0
KWE2 132110Z 23006KT 30/03 A2994 RMK A01 T02960029  RH  018%=      5-min Rain = 0
KWE2 132111Z 24003KT 30/03 A2994 RMK A01 T02950029  RH  018%=      5-min Rain = 0
KWE2 132112Z 25002KT 29/03 A2994 RMK A01 T02930029  RH  018%=      5-min Rain = 0
KWE2 132113Z 30002KT 29/03 A2994 RMK A01 T02930030  RH  019%=      5-min Rain = 0
KWE2 132114Z 32002KT 29/03 A2994 RMK A01 T02930029  RH  018%=      5-min Rain = 0
KWE2 132115Z 31000KT 29/03 A2994 RMK A01 T02920029  RH  019%=      5-min Rain = 0
KWE2 132116Z 24001KT 29/03 A2994 RMK A01 T02920031  RH  019%=      5-min Rain = 0
KWE2 132117Z 22001KT 29/03 A2994 RMK A01 T02940031  RH  019%=      5-min Rain = 0
KWE2 132118Z 24002KT 30/03 A2994 RMK A01 T02950030  RH  018%=      5-min Rain = 0
KWE2 132119Z 21004KT 30/03 A2994 RMK A01 T02980026  RH  018%=      5-min Rain = 0
KWE2 132120Z 21004KT 30/02 A2994 RMK A01 T02990020  RH  017%=      5-min Rain = 0
KWE2 132121Z 20003KT 30/02 A2994 RMK A01 T02990020  RH  017%=      5-min Rain = 0
KWE2 132122Z 18008G15KT 30/02 A2994 RMK A01 T02980022  RH  017%=      5-min Rain = 0
KWE2 132123Z 26011G16KT 30/02 A2993 RMK A01 T02990019  RH  017%=      5-min Rain = 0
KWE2 132124Z 26007KT 30/02 A2994 RMK A01 T02980015  RH  016%=      5-min Rain = 0
KWE2 132125Z 28009KT 30/01 A2994 RMK A01 T02990014  RH  016%=      5-min Rain = 0
KWE2 132126Z 26007KT 30/01 A2994 RMK A01 T03010010  RH  015%=      5-min Rain = 0
KWE2 132127Z 25011KT 30/01 A2994 RMK A01 T03010011  RH  016%=      5-min Rain = 0
KWE2 132128Z 27008KT 30/01 A2994 RMK A01 T03010010  RH  015%=      5-min Rain = 0
KWE2 132129Z 28003KT 30/01 A2994 RMK A01 T02980007  RH  015%=      5-min Rain = 0
KWE2 132130Z 29002KT 30/01 A2994 RMK A01 T02970009  RH  016%=      5-min Rain = 0
KWE2 132131Z 26002KT 30/01 A2994 RMK A01 T02970010  RH  016%=      5-min Rain = 0
KWE2 132132Z 26005KT 30/01 A2994 RMK A01 T03000011  RH  016%=      5-min Rain = 0
KWE2 132133Z 28006KT 30/01 A2994 RMK A01 T03000006  RH  015%=      5-min Rain = 0
KWE2 132134Z 27004KT 30/01 A2994 RMK A01 T03000010  RH  015%=      5-min Rain = 0
KWE2 132135Z 29002KT 30/01 A2994 RMK A01 T03010008  RH  015%=      5-min Rain = 0
KWE2 132136Z 29003KT 30/01 A2994 RMK A01 T03010010  RH  015%=      5-min Rain = 0
KWE2 132137Z 28009KT 30/01 A2994 RMK A01 T03020008  RH  015%=      5-min Rain = 0
KWE2 132138Z 29009KT 30/00 A2994 RMK A01 T03010002  RH  015%=      5-min Rain = 0
KWE2 132139Z 29007KT 30/00 A2994 RMK A01 T03000002  RH  015%=      5-min Rain = 0
KWE2 132140Z 29005KT 30/00 A2994 RMK A01 T02990001  RH  015%=      5-min Rain = 0
KWE2 132141Z 27007KT 30/00 A2994 RMK A01 T02990002  RH  015%=      5-min Rain = 0
KWE2 132142Z 28005KT 30/00 A2994 RMK A01 T03010001  RH  014%=      5-min Rain = 0
KWE2 132143Z 27006KT 30/00 A2994 RMK A01 T03030002  RH  014%=      5-min Rain = 0
KWE2 132144Z 28009KT 30/00 A2994 RMK A01 T03040004  RH  015%=      5-min Rain = 0
KWE2 132145Z 27007KT 30/01 A2994 RMK A01 T03010005  RH  015%=      5-min Rain = 0
KWE2 132146Z 26003KT 30/01 A2994 RMK A01 T02990005  RH  015%=      5-min Rain = 0
KWE2 132147Z 27003KT 30/00 A2994 RMK A01 T02970004  RH  015%=      5-min Rain = 0
KWE2 132148Z 27007KT 30/01 A2994 RMK A01 T02970005  RH  015%=      5-min Rain = 0
KWE2 132149Z 26007KT 30/01 A2994 RMK A01 T02990008  RH  015%=      5-min Rain = 0
KWE2 132150Z 23006KT 30/01 A2994 RMK A01 T02990006  RH  015%=      5-min Rain = 0
KWE2 132151Z 22006KT 30/01 A2994 RMK A01 T02990007  RH  015%=      5-min Rain = 0
KWE2 132152Z 24006KT 30/01 A2994 RMK A01 T02980007  RH  015%=      5-min Rain = 0
KWE2 132153Z 24006KT 30/01 A2994 RMK A01 T02980007  RH  015%=      5-min Rain = 0
KWE2 132154Z 23004KT 30/01 A2994 RMK A01 T02990007  RH  015%=      5-min Rain = 0
KWE2 132155Z 23003KT 30/01 A2994 RMK A01 T03000006  RH  015%=      5-min Rain = 0
KWE2 132156Z 28005KT 30/01 A2994 RMK A01 T03000007  RH  015%=      5-min Rain = 0
KWE2 132157Z 28005KT 30/01 A2994 RMK A01 T03000007  RH  015%=      5-min Rain = 0
KWE2 132158Z 28010KT 30/01 A2994 RMK A01 T03010009  RH  015%=      5-min Rain = 0
KWE2 132159Z 27010KT 30/01 A2994 RMK A01 T03010007  RH  015%=      5-min Rain = 0
KWE2 132200Z 26007KT 30/01 A2994 RMK A01 T02990006  RH  015%=      5-min Rain = 0
KWE2 132201Z 25005KT 30/01 A2994 RMK A01 T02980007  RH  015%=      5-min Rain = 0
KWE2 132202Z 25005KT 30/01 A2994 RMK A01 T02980008  RH  015%=      5-min Rain = 0
KWE2 132203Z 23009KT 30/02 A2994 RMK A01 T02990019  RH  017%=      5-min Rain = 0
KWE2 132204Z 23008KT 30/02 A2994 RMK A01 T03000023  RH  017%=      5-min Rain = 0
KWE2 132205Z 21006KT 30/02 A2994 RMK A01 T02990022  RH  017%=      5-min Rain = 0
KWE2 132206Z 21008KT 30/02 A2994 RMK A01 T02970024  RH  017%=      5-min Rain = 0
KWE2 132207Z 21007KT 30/02 A2994 RMK A01 T02980024  RH  017%=      5-min Rain = 0
KWE2 132208Z 22007KT 30/02 A2994 RMK A01 T02980024  RH  017%=      5-min Rain = 0
KWE2 132209Z 21005KT 30/02 A2994 RMK A01 T02960023  RH  017%=      5-min Rain = 0
KWE2 132210Z 22005KT 30/03 A2994 RMK A01 T02960025  RH  018%=      5-min Rain = 0
KWE2 132211Z 21008KT 30/03 A2994 RMK A01 T02980026  RH  018%=      5-min Rain = 0
KWE2 132212Z 21009KT 30/03 A2994 RMK A01 T02980026  RH  018%=      5-min Rain = 0
KWE2 132213Z 21007KT 30/03 A2994 RMK A01 T02970027  RH  018%=      5-min Rain = 0
KWE2 132214Z 23005KT 30/03 A2994 RMK A01 T02970028  RH  018%=      5-min Rain = 0
KWE2 132215Z 22004KT 30/03 A2994 RMK A01 T02980029  RH  018%=      5-min Rain = 0
KWE2 132216Z 25004KT 30/03 A2994 RMK A01 T02990029  RH  018%=      5-min Rain = 0
KWE2 132217Z 24004KT 30/03 A2994 RMK A01 T02980029  RH  018%=      5-min Rain = 0
KWE2 132218Z 23009KT 30/03 A2994 RMK A01 T02980029  RH  018%=      5-min Rain = 0
KWE2 132219Z 22007KT 30/03 A2994 RMK A01 T02980028  RH  018%=      5-min Rain = 0
KWE2 132220Z 22006KT 30/03 A2994 RMK A01 T02980027  RH  018%=      5-min Rain = 0
KWE2 132221Z 23006KT 30/03 A2994 RMK A01 T02970027  RH  018%=      5-min Rain = 0
KWE2 132222Z 21008KT 30/03 A2994 RMK A01 T02970026  RH  018%=      5-min Rain = 0
KWE2 132223Z 22007KT 30/03 A2994 RMK A01 T02960027  RH  018%=      5-min Rain = 0
KWE2 132224Z 22007KT 30/03 A2994 RMK A01 T02960026  RH  018%=      5-min Rain = 0
KWE2 132225Z 25004KT 30/03 A2994 RMK A01 T02960025  RH  018%=      5-min Rain = 0
KWE2 132226Z 23005KT 30/03 A2994 RMK A01 T02950026  RH  018%=      5-min Rain = 0
KWE2 132227Z 22005KT 30/03 A2994 RMK A01 T02950025  RH  018%=      5-min Rain = 0
KWE2 132228Z 22007KT 30/03 A2994 RMK A01 T02960027  RH  018%=      5-min Rain = 0
KWE2 132229Z 23010KT 30/03 A2994 RMK A01 T02960027  RH  018%=      5-min Rain = 0
KWE2 132230Z 24008KT 30/03 A2994 RMK A01 T02960027  RH  018%=      5-min Rain = 0
KWE2 132231Z 24007KT 30/03 A2994 RMK A01 T02950026  RH  018%=      5-min Rain = 0
KWE2 132232Z 25002KT 29/03 A2994 RMK A01 T02940025  RH  018%=      5-min Rain = 0
KWE2 132233Z 24002KT 29/03 A2994 RMK A01 T02940026  RH  018%=      5-min Rain = 0
KWE2 132234Z 22005KT 30/03 A2994 RMK A01 T02950028  RH  018%=      5-min Rain = 0
KWE2 132235Z 22005KT 30/03 A2994 RMK A01 T02970030  RH  018%=      5-min Rain = 0
KWE2 132236Z 21006KT 30/03 A2994 RMK A01 T02990031  RH  018%=      5-min Rain = 0
KWE2 132237Z 22005KT 30/03 A2994 RMK A01 T02990026  RH  017%=      5-min Rain = 0
KWE2 132238Z 20006KT 30/03 A2994 RMK A01 T02980028  RH  018%=      5-min Rain = 0
KWE2 132239Z 19008KT 30/03 A2994 RMK A01 T02970027  RH  018%=      5-min Rain = 0
KWE2 132240Z 21009KT 30/03 A2994 RMK A01 T02970028  RH  018%=      5-min Rain = 0
KWE2 132241Z 19009KT 30/03 A2994 RMK A01 T02970028  RH  018%=      5-min Rain = 0
KWE2 132242Z 18008KT 30/03 A2994 RMK A01 T02960025  RH  018%=      5-min Rain = 0
KWE2 132243Z 19008KT 30/03 A2994 RMK A01 T02950025  RH  018%=      5-min Rain = 0
KWE2 132244Z 20009KT 30/03 A2994 RMK A01 T02950026  RH  018%=      5-min Rain = 0
KWE2 132245Z 19009KT 29/03 A2994 RMK A01 T02940027  RH  018%=      5-min Rain = 0
KWE2 132246Z 18007KT 29/03 A2994 RMK A01 T02940027  RH  018%=      5-min Rain = 0
KWE2 132247Z 19005KT 29/03 A2994 RMK A01 T02940028  RH  018%=      5-min Rain = 0
KWE2 132248Z 18007KT 30/03 A2994 RMK A01 T02950029  RH  018%=      5-min Rain = 0
KWE2 132249Z 20009KT 30/03 A2994 RMK A01 T02950029  RH  018%=      5-min Rain = 0
KWE2 132250Z 21006KT 30/03 A2994 RMK A01 T02950030  RH  018%=      5-min Rain = 0
KWE2 132251Z 22008KT 30/03 A2994 RMK A01 T02950030  RH  018%=      5-min Rain = 0
KWE2 132252Z 21007KT 29/03 A2994 RMK A01 T02940029  RH  018%=      5-min Rain = 0
KWE2 132253Z 21007KT 29/03 A2994 RMK A01 T02930029  RH  018%=      5-min Rain = 0
KWE2 132254Z 21006KT 29/03 A2994 RMK A01 T02930030  RH  019%=      5-min Rain = 0
KWE2 132255Z 21009KT 29/03 A2994 RMK A01 T02940031  RH  019%=      5-min Rain = 0
KWE2 132256Z 22011KT 30/03 A2994 RMK A01 T02950029  RH  018%=      5-min Rain = 0
KWE2 132257Z 21008KT 29/03 A2994 RMK A01 T02930027  RH  018%=      5-min Rain = 0
KWE2 132258Z 20009KT 29/03 A2994 RMK A01 T02920028  RH  018%=      5-min Rain = 0
KWE2 132259Z 20008KT 29/03 A2994 RMK A01 T02920027  RH  018%=      5-min Rain = 0
KWE2 132300Z 19007KT 29/03 A2994 RMK A01 T02920027  RH  018%=      5-min Rain = 0
KWE2 132301Z 21007KT 29/03 A2994 RMK A01 T02920027  RH  018%=      5-min Rain = 0
KWE2 132302Z 21008KT 29/03 A2994 RMK A01 T02920027  RH  018%=      5-min Rain = 0
KWE2 132303Z 20007KT 29/03 A2994 RMK A01 T02920028  RH  018%=      5-min Rain = 0
KWE2 132304Z 20006KT 29/03 A2994 RMK A01 T02920027  RH  018%=      5-min Rain = 0
KWE2 132305Z 21004KT 29/03 A2994 RMK A01 T02910027  RH  018%=      5-min Rain = 0
KWE2 132306Z 21004KT 29/03 A2994 RMK A01 T02910028  RH  019%=      5-min Rain = 0
KWE2 132307Z 21006KT 29/03 A2994 RMK A01 T02910028  RH  019%=      5-min Rain = 0
KWE2 132308Z 20009KT 29/03 A2994 RMK A01 T02910028  RH  019%=      5-min Rain = 0
KWE2 132309Z 20009KT 29/03 A2994 RMK A01 T02910027  RH  018%=      5-min Rain = 0
KWE2 132310Z 21007KT 29/03 A2994 RMK A01 T02910026  RH  018%=      5-min Rain = 0
KWE2 132311Z 21006KT 29/03 A2994 RMK A01 T02910028  RH  018%=      5-min Rain = 0
KWE2 132312Z 21009KT 29/03 A2994 RMK A01 T02910028  RH  018%=      5-min Rain = 0
KWE2 132313Z 20008KT 29/03 A2994 RMK A01 T02920028  RH  018%=      5-min Rain = 0
KWE2 132314Z 21008KT 29/03 A2994 RMK A01 T02910028  RH  018%=      5-min Rain = 0
KWE2 132315Z 20008KT 29/03 A2994 RMK A01 T02910027  RH  018%=      5-min Rain = 0
KWE2 132316Z 21008KT 29/03 A2994 RMK A01 T02900026  RH  018%=      5-min Rain = 0
KWE2 132317Z 21009KT 29/03 A2994 RMK A01 T02900028  RH  019%=      5-min Rain = 0
KWE2 132318Z 20007KT 29/03 A2995 RMK A01 T02890028  RH  019%=      5-min Rain = 0
KWE2 132319Z 19007KT 29/03 A2995 RMK A01 T02890029  RH  019%=      5-min Rain = 0
KWE2 132320Z 18007KT 29/03 A2995 RMK A01 T02880029  RH  019%=      5-min Rain = 0
KWE2 132321Z 19007KT 29/03 A2995 RMK A01 T02870028  RH  019%=      5-min Rain = 0
KWE2 132322Z 18008KT 29/03 A2995 RMK A01 T02860028  RH  019%=      5-min Rain = 0
KWE2 132323Z 18007KT 29/03 A2995 RMK A01 T02850028  RH  019%=      5-min Rain = 0
KWE2 132324Z 20006KT 29/03 A2995 RMK A01 T02850028  RH  019%=      5-min Rain = 0
KWE2 132325Z 21006KT 28/03 A2995 RMK A01 T02840030  RH  019%=      5-min Rain = 0
KWE2 132326Z 21006KT 28/03 A2995 RMK A01 T02840031  RH  020%=      5-min Rain = 0
KWE2 132327Z 22007KT 28/03 A2995 RMK A01 T02840032  RH  020%=      5-min Rain = 0
KWE2 132328Z 22008KT 28/03 A2995 RMK A01 T02840031  RH  020%=      5-min Rain = 0
KWE2 132329Z 22007KT 28/03 A2995 RMK A01 T02840030  RH  020%=      5-min Rain = 0
KWE2 132330Z 22006KT 28/03 A2995 RMK A01 T02830031  RH  020%=      5-min Rain = 0
KWE2 132331Z 22007KT 28/03 A2995 RMK A01 T02830032  RH  020%=      5-min Rain = 0
KWE2 132332Z 22007KT 28/03 A2995 RMK A01 T02820032  RH  020%=      5-min Rain = 0
KWE2 132333Z 22007KT 28/03 A2995 RMK A01 T02810031  RH  020%=      5-min Rain = 0
KWE2 132334Z 21006KT 28/03 A2995 RMK A01 T02800032  RH  020%=      5-min Rain = 0
KWE2 132335Z 21006KT 28/03 A2995 RMK A01 T02790031  RH  020%=      5-min Rain = 0
KWE2 132336Z 21006KT 28/03 A2995 RMK A01 T02790031  RH  020%=      5-min Rain = 0
KWE2 132337Z 21006KT 28/03 A2995 RMK A01 T02780032  RH  021%=      5-min Rain = 0
KWE2 132338Z 20007KT 28/03 A2995 RMK A01 T02770032  RH  021%=      5-min Rain = 0
KWE2 132339Z 20007KT 28/03 A2995 RMK A01 T02770032  RH  021%=      5-min Rain = 0
KWE2 132340Z 21007KT 28/03 A2995 RMK A01 T02760031  RH  021%=      5-min Rain = 0
KWE2 132341Z 20008KT 28/03 A2995 RMK A01 T02760031  RH  021%=      5-min Rain = 0
KWE2 132342Z 20007KT 28/03 A2995 RMK A01 T02750031  RH  021%=      5-min Rain = 0
KWE2 132343Z 19006KT 27/03 A2995 RMK A01 T02740032  RH  021%=      5-min Rain = 0
KWE2 132344Z 19006KT 27/03 A2995 RMK A01 T02730032  RH  021%=      5-min Rain = 0
KWE2 132345Z 20006KT 27/03 A2995 RMK A01 T02720033  RH  021%=      5-min Rain = 0
KWE2 132346Z 20006KT 27/03 A2995 RMK A01 T02710033  RH  022%=      5-min Rain = 0
KWE2 132347Z 20005KT 27/03 A2995 RMK A01 T02700033  RH  022%=      5-min Rain = 0
KWE2 132348Z 20005KT 27/03 A2995 RMK A01 T02690033  RH  022%=      5-min Rain = 0
KWE2 132349Z 20005KT 27/03 A2995 RMK A01 T02680033  RH  022%=      5-min Rain = 0
KWE2 132350Z 20006KT 27/03 A2995 RMK A01 T02660033  RH  022%=      5-min Rain = 0
KWE2 132351Z 20006KT 27/03 A2995 RMK A01 T02650034  RH  022%=      5-min Rain = 0
KWE2 132352Z 19006KT 26/03 A2995 RMK A01 T02640034  RH  023%=      5-min Rain = 0
KWE2 132353Z 19006KT 26/03 A2995 RMK A01 T02620034  RH  023%=      5-min Rain = 0
KWE2 132354Z 19006KT 26/04 A2995 RMK A01 T02610035  RH  023%=      5-min Rain = 0
KWE2 132355Z 19006KT 26/04 A2995 RMK A01 T02600035  RH  023%=      5-min Rain = 0
KWE2 132356Z 19006KT 26/04 A2995 RMK A01 T02580035  RH  024%=      5-min Rain = 0
KWE2 132357Z 19005KT 26/04 A2995 RMK A01 T02570035  RH  024%=      5-min Rain = 0
KWE2 132358Z 19006KT 26/04 A2995 RMK A01 T02560035  RH  024%=      5-min Rain = 0
KWE2 132359Z 19006KT 26/04 A2995 RMK A01 T02550035  RH  024%=      5-min Rain = 0
KWE2 140000Z 19006KT 25/04 A2995 RMK A01 T02540035  RH  024%=      5-min Rain = 0
KWE2 140001Z 19006KT 25/04 A2995 RMK A01 T02530035  RH  024%=      5-min Rain = 0
KWE2 140002Z 19006KT 25/04 A2995 RMK A01 T02520035  RH  024%=      5-min Rain = 0
KWE2 140003Z 19006KT 25/04 A2995 RMK A01 T02510035  RH  025%=      5-min Rain = 0
KWE2 140004Z 19005KT 25/03 A2995 RMK A01 T02500034  RH  025%=      5-min Rain = 0
KWE2 140005Z 19005KT 25/03 A2995 RMK A01 T02480034  RH  025%=      5-min Rain = 0
KWE2 140006Z 20005KT 25/03 A2995 RMK A01 T02470034  RH  025%=      5-min Rain = 0
KWE2 140007Z 20005KT 25/04 A2995 RMK A01 T02460035  RH  025%=      5-min Rain = 0
KWE2 140008Z 20005KT 24/03 A2995 RMK A01 T02440034  RH  026%=      5-min Rain = 0
KWE2 140009Z 20005KT 24/04 A2995 RMK A01 T02430035  RH  026%=      5-min Rain = 0
KWE2 140010Z 20005KT 24/04 A2995 RMK A01 T02420036  RH  026%=      5-min Rain = 0
KWE2 140011Z 21006KT 24/04 A2995 RMK A01 T02400037  RH  027%=      5-min Rain = 0
KWE2 140012Z 22005KT 24/04 A2995 RMK A01 T02370038  RH  027%=      5-min Rain = 0
KWE2 140013Z 22004KT 23/04 A2996 RMK A01 T02340037  RH  028%=      5-min Rain = 0
KWE2 140014Z 21006KT 23/04 A2996 RMK A01 T02320038  RH  028%=      5-min Rain = 0
KWE2 140015Z 21006KT 23/04 A2996 RMK A01 T02320039  RH  028%=      5-min Rain = 0
KWE2 140016Z 21006KT 23/04 A2996 RMK A01 T02310039  RH  028%=      5-min Rain = 0
KWE2 140017Z 21006KT 23/04 A2996 RMK A01 T02300039  RH  029%=      5-min Rain = 0
KWE2 140018Z 21006KT 23/04 A2996 RMK A01 T02290040  RH  029%=      5-min Rain = 0
KWE2 140019Z 21006KT 23/04 A2996 RMK A01 T02270039  RH  029%=      5-min Rain = 0
KWE2 140020Z 20006KT 23/04 A2996 RMK A01 T02260039  RH  029%=      5-min Rain = 0
KWE2 140021Z 20006KT 23/04 A2996 RMK A01 T02260039  RH  030%=      5-min Rain = 0
KWE2 140022Z 21006KT 22/04 A2996 RMK A01 T02240040  RH  030%=      5-min Rain = 0
KWE2 140023Z 21006KT 22/04 A2996 RMK A01 T02230040  RH  030%=      5-min Rain = 0
KWE2 140024Z 21006KT 22/04 A2996 RMK A01 T02220040  RH  030%=      5-min Rain = 0
KWE2 140025Z 21006KT 22/04 A2996 RMK A01 T02210040  RH  031%=      5-min Rain = 0
KWE2 140026Z 21006KT 22/04 A2996 RMK A01 T02200040  RH  031%=      5-min Rain = 0
KWE2 140027Z 20007KT 22/04 A2996 RMK A01 T02180040  RH  031%=      5-min Rain = 0
KWE2 140028Z 20007KT 22/04 A2996 RMK A01 T02170040  RH  031%=      5-min Rain = 0
KWE2 140029Z 20007KT 22/04 A2996 RMK A01 T02160041  RH  032%=      5-min Rain = 0
KWE2 140030Z 20007KT 22/04 A2996 RMK A01 T02160040  RH  032%=      5-min Rain = 0
KWE2 140031Z 20007KT 22/04 A2996 RMK A01 T02160040  RH  032%=      5-min Rain = 0
KWE2 140032Z 20006KT 22/04 A2996 RMK A01 T02150040  RH  032%=      5-min Rain = 0
KWE2 140033Z 20007KT 21/04 A2996 RMK A01 T02140040  RH  032%=      5-min Rain = 0
KWE2 140034Z 20006KT 21/04 A2996 RMK A01 T02130040  RH  032%=      5-min Rain = 0
KWE2 140035Z 20006KT 21/04 A2996 RMK A01 T02130040  RH  032%=      5-min Rain = 0
KWE2 140036Z 20006KT 21/04 A2996 RMK A01 T02130039  RH  032%=      5-min Rain = 0
KWE2 140037Z 20006KT 21/04 A2996 RMK A01 T02140039  RH  032%=      5-min Rain = 0
KWE2 140038Z 20006KT 22/04 A2996 RMK A01 T02150039  RH  032%=      5-min Rain = 0
KWE2 140039Z 20006KT 22/04 A2996 RMK A01 T02150039  RH  032%=      5-min Rain = 0
KWE2 140040Z 20006KT 22/04 A2996 RMK A01 T02150039  RH  032%=      5-min Rain = 0
KWE2 140041Z 20006KT 22/04 A2996 RMK A01 T02150040  RH  032%=      5-min Rain = 0
KWE2 140042Z 20006KT 22/04 A2996 RMK A01 T02150040  RH  032%=      5-min Rain = 0
KWE2 140043Z 20006KT 22/04 A2996 RMK A01 T02150040  RH  032%=      5-min Rain = 0
KWE2 140044Z 20005KT 22/04 A2996 RMK A01 T02150039  RH  032%=      5-min Rain = 0
KWE2 140045Z 20005KT 21/04 A2997 RMK A01 T02140039  RH  032%=      5-min Rain = 0
KWE2 140046Z 20005KT 21/04 A2996 RMK A01 T02130039  RH  032%=      5-min Rain = 0
KWE2 140047Z 20005KT 21/04 A2996 RMK A01 T02120039  RH  032%=      5-min Rain = 0
KWE2 140048Z 20005KT 21/04 A2996 RMK A01 T02110039  RH  032%=      5-min Rain = 0
KWE2 140049Z 20004KT 21/04 A2996 RMK A01 T02090039  RH  033%=      5-min Rain = 0
KWE2 140050Z 20004KT 21/04 A2996 RMK A01 T02070039  RH  033%=      5-min Rain = 0
KWE2 140051Z 20004KT 21/04 A2996 RMK A01 T02050039  RH  033%=      5-min Rain = 0
KWE2 140052Z 20005KT 20/04 A2996 RMK A01 T02040039  RH  034%=      5-min Rain = 0
KWE2 140053Z 19005KT 20/04 A2996 RMK A01 T02030039  RH  034%=      5-min Rain = 0
KWE2 140054Z 19005KT 20/04 A2996 RMK A01 T02030039  RH  034%=      5-min Rain = 0
KWE2 140055Z 20005KT 20/04 A2996 RMK A01 T02020040  RH  034%=      5-min Rain = 0
KWE2 140056Z 21005KT 20/04 A2996 RMK A01 T02020041  RH  035%=      5-min Rain = 0
KWE2 140057Z 21005KT 20/04 A2997 RMK A01 T02000040  RH  035%=      5-min Rain = 0
KWE2 140058Z 21005KT 20/04 A2997 RMK A01 T01980041  RH  035%=      5-min Rain = 0
KWE2 140059Z 20005KT 20/04 A2997 RMK A01 T01970041  RH  036%=      5-min Rain = 0
KWE2 140100Z 20005KT 20/04 A2997 RMK A01 T01970041  RH  036%=      5-min Rain = 0
KWE2 140101Z 20005KT 20/04 A2997 RMK A01 T01970041  RH  036%=      5-min Rain = 0
KWE2 140102Z 20005KT 20/04 A2997 RMK A01 T01970041  RH  036%=      5-min Rain = 0
KWE2 140103Z 20005KT 20/04 A2997 RMK A01 T01970041  RH  036%=      5-min Rain = 0
KWE2 140104Z 20005KT 20/04 A2997 RMK A01 T01960041  RH  036%=      5-min Rain = 0
KWE2 140105Z 20006KT 20/04 A2997 RMK A01 T01950041  RH  036%=      5-min Rain = 0
KWE2 140106Z 20006KT 20/04 A2997 RMK A01 T01950041  RH  036%=      5-min Rain = 0
KWE2 140107Z 21006KT 19/04 A2997 RMK A01 T01940042  RH  036%=      5-min Rain = 0
KWE2 140108Z 21006KT 19/04 A2997 RMK A01 T01940042  RH  037%=      5-min Rain = 0
KWE2 140109Z 21005KT 19/04 A2997 RMK A01 T01920042  RH  037%=      5-min Rain = 0
KWE2 140110Z 22004KT 19/04 A2997 RMK A01 T01910042  RH  037%=      5-min Rain = 0
KWE2 140111Z 23004KT 19/04 A2997 RMK A01 T01900042  RH  038%=      5-min Rain = 0
KWE2 140112Z 23004KT 19/04 A2997 RMK A01 T01890041  RH  038%=      5-min Rain = 0
KWE2 140113Z 23004KT 19/04 A2997 RMK A01 T01890041  RH  038%=      5-min Rain = 0
KWE2 140114Z 22004KT 19/04 A2997 RMK A01 T01890041  RH  038%=      5-min Rain = 0
KWE2 140115Z 22004KT 19/04 A2997 RMK A01 T01890042  RH  038%=      5-min Rain = 0
KWE2 140116Z 23004KT 19/04 A2997 RMK A01 T01890042  RH  038%=      5-min Rain = 0
KWE2 140117Z 23004KT 19/04 A2997 RMK A01 T01890042  RH  038%=      5-min Rain = 0
KWE2 140118Z 23004KT 19/04 A2997 RMK A01 T01890042  RH  038%=      5-min Rain = 0
KWE2 140119Z 23005KT 19/04 A2997 RMK A01 T01890043  RH  038%=      5-min Rain = 0
KWE2 140120Z 22005KT 19/04 A2997 RMK A01 T01890043  RH  038%=      5-min Rain = 0
KWE2 140121Z 23004KT 19/04 A2997 RMK A01 T01890044  RH  038%=      5-min Rain = 0
KWE2 140122Z 22004KT 19/04 A2997 RMK A01 T01880044  RH  039%=      5-min Rain = 0
KWE2 140123Z 22004KT 19/05 A2997 RMK A01 T01870045  RH  039%=      5-min Rain = 0
KWE2 140124Z 22005KT 19/04 A2997 RMK A01 T01870044  RH  039%=      5-min Rain = 0
KWE2 140125Z 23004KT 19/04 A2997 RMK A01 T01870044  RH  039%=      5-min Rain = 0
KWE2 140126Z 23005KT 19/05 A2997 RMK A01 T01870046  RH  039%=      5-min Rain = 0
KWE2 140127Z 23006KT 19/05 A2997 RMK A01 T01860045  RH  039%=      5-min Rain = 0
KWE2 140128Z 23006KT 19/05 A2998 RMK A01 T01850045  RH  040%=      5-min Rain = 0
KWE2 140129Z 23006KT 18/05 A2998 RMK A01 T01840048  RH  040%=      5-min Rain = 0
KWE2 140130Z 22006KT 18/05 A2998 RMK A01 T01830048  RH  041%=      5-min Rain = 0
KWE2 140131Z 23006KT 18/05 A2998 RMK A01 T01830049  RH  041%=      5-min Rain = 0
KWE2 140132Z 23006KT 18/05 A2998 RMK A01 T01830049  RH  041%=      5-min Rain = 0
KWE2 140133Z 23006KT 18/05 A2998 RMK A01 T01830050  RH  042%=      5-min Rain = 0
KWE2 140134Z 23006KT 18/05 A2998 RMK A01 T01830050  RH  042%=      5-min Rain = 0
KWE2 140135Z 23006KT 18/05 A2998 RMK A01 T01820050  RH  042%=      5-min Rain = 0
KWE2 140136Z 23005KT 18/05 A2998 RMK A01 T01820050  RH  042%=      5-min Rain = 0
KWE2 140137Z 23005KT 18/05 A2998 RMK A01 T01820050  RH  042%=      5-min Rain = 0
KWE2 140138Z 24005KT 18/05 A2998 RMK A01 T01820050  RH  042%=      5-min Rain = 0
KWE2 140139Z 24004KT 18/05 A2998 RMK A01 T01820051  RH  042%=      5-min Rain = 0
KWE2 140140Z 23005KT 18/05 A2998 RMK A01 T01820051  RH  042%=      5-min Rain = 0
KWE2 140141Z 23005KT 18/05 A2998 RMK A01 T01820051  RH  042%=      5-min Rain = 0
KWE2 140142Z 23006KT 18/05 A2998 RMK A01 T01820051  RH  042%=      5-min Rain = 0
KWE2 140143Z 23006KT 18/05 A2998 RMK A01 T01820051  RH  042%=      5-min Rain = 0
KWE2 140144Z 23006KT 18/05 A2998 RMK A01 T01820052  RH  042%=      5-min Rain = 0
KWE2 140145Z 23007KT 18/05 A2998 RMK A01 T01820052  RH  042%=      5-min Rain = 0
KWE2 140146Z 23007KT 18/05 A2998 RMK A01 T01830052  RH  042%=      5-min Rain = 0
KWE2 140147Z 23007KT 18/05 A2998 RMK A01 T01840051  RH  042%=      5-min Rain = 0
KWE2 140148Z 23007KT 19/05 A2998 RMK A01 T01850051  RH  041%=      5-min Rain = 0
KWE2 140149Z 23007KT 19/05 A2998 RMK A01 T01850051  RH  041%=      5-min Rain = 0
KWE2 140150Z 23007KT 19/05 A2998 RMK A01 T01860051  RH  041%=      5-min Rain = 0
KWE2 140151Z 23007KT 19/05 A2998 RMK A01 T01860052  RH  041%=      5-min Rain = 0
KWE2 140152Z 23007KT 19/05 A2998 RMK A01 T01860051  RH  041%=      5-min Rain = 0
KWE2 140153Z 23006KT 19/05 A2998 RMK A01 T01870051  RH  041%=      5-min Rain = 0
KWE2 140154Z 24006KT 19/05 A2998 RMK A01 T01870051  RH  041%=      5-min Rain = 0
KWE2 140155Z 24005KT 19/05 A2998 RMK A01 T01870051  RH  041%=      5-min Rain = 0
KWE2 140156Z 24005KT 19/05 A2998 RMK A01 T01870052  RH  041%=      5-min Rain = 0
KWE2 140157Z 25005KT 19/05 A2998 RMK A01 T01860052  RH  041%=      5-min Rain = 0
KWE2 140158Z 24005KT 19/05 A2998 RMK A01 T01860052  RH  041%=      5-min Rain = 0
KWE2 140159Z 24005KT 19/05 A2998 RMK A01 T01860053  RH  042%=      5-min Rain = 0
KWE2 140200Z 25004KT 19/05 A2998 RMK A01 T01850053  RH  042%=      5-min Rain = 0
KWE2 140201Z 26004KT 19/05 A2998 RMK A01 T01850053  RH  042%=      5-min Rain = 0
KWE2 140202Z 27004KT 19/05 A2998 RMK A01 T01850053  RH  042%=      5-min Rain = 0
KWE2 140203Z 27004KT 18/05 A2998 RMK A01 T01840054  RH  042%=      5-min Rain = 0
KWE2 140204Z 26005KT 18/05 A2998 RMK A01 T01830054  RH  043%=      5-min Rain = 0
KWE2 140205Z 30007KT 18/06 A2998 RMK A01 T01830055  RH  043%=      5-min Rain = 0
KWE2 140206Z 29006KT 18/06 A2999 RMK A01 T01820055  RH  043%=      5-min Rain = 0
KWE2 140207Z 30006KT 18/06 A2999 RMK A01 T01820056  RH  044%=      5-min Rain = 0
KWE2 140208Z 29006KT 18/06 A2999 RMK A01 T01810056  RH  044%=      5-min Rain = 0
KWE2 140209Z 28006KT 18/06 A2999 RMK A01 T01820057  RH  044%=      5-min Rain = 0
KWE2 140210Z 29006KT 18/06 A2999 RMK A01 T01830057  RH  044%=      5-min Rain = 0
KWE2 140211Z 29006KT 18/06 A2999 RMK A01 T01840058  RH  043%=      5-min Rain = 0
KWE2 140212Z 29005KT 19/06 A2999 RMK A01 T01850058  RH  043%=      5-min Rain = 0
KWE2 140213Z 27005KT 19/06 A2999 RMK A01 T01850058  RH  043%=      5-min Rain = 0
KWE2 140214Z 27004KT 19/06 A2999 RMK A01 T01850058  RH  043%=      5-min Rain = 0
KWE2 140215Z 26004KT 19/06 A2999 RMK A01 T01850058  RH  043%=      5-min Rain = 0
KWE2 140216Z 27004KT 19/06 A2999 RMK A01 T01850058  RH  043%=      5-min Rain = 0
KWE2 140217Z 27004KT 19/06 A2999 RMK A01 T01860057  RH  043%=      5-min Rain = 0
KWE2 140218Z 27005KT 19/06 A2999 RMK A01 T01860057  RH  043%=      5-min Rain = 0
KWE2 140219Z 27005KT 19/06 A2999 RMK A01 T01860057  RH  043%=      5-min Rain = 0
KWE2 140220Z 27005KT 19/06 A2999 RMK A01 T01860057  RH  043%=      5-min Rain = 0
KWE2 140221Z 28004KT 19/06 A2999 RMK A01 T01860057  RH  043%=      5-min Rain = 0
KWE2 140222Z 28004KT 19/06 A2998 RMK A01 T01860057  RH  043%=      5-min Rain = 0
KWE2 140223Z 28005KT 19/06 A2998 RMK A01 T01850057  RH  043%=      5-min Rain = 0
KWE2 140224Z 28005KT 19/06 A2999 RMK A01 T01850057  RH  043%=      5-min Rain = 0
KWE2 140225Z 28005KT 18/06 A2999 RMK A01 T01840058  RH  043%=      5-min Rain = 0
KWE2 140226Z 28005KT 18/06 A2999 RMK A01 T01830058  RH  044%=      5-min Rain = 0
KWE2 140227Z 28005KT 18/06 A2998 RMK A01 T01830057  RH  044%=      5-min Rain = 0
KWE2 140228Z 28005KT 18/06 A2998 RMK A01 T01820057  RH  044%=      5-min Rain = 0
KWE2 140229Z 27006KT 18/06 A2998 RMK A01 T01820058  RH  044%=      5-min Rain = 0
KWE2 140230Z 27006KT 18/06 A2998 RMK A01 T01820057  RH  044%=      5-min Rain = 0
KWE2 140231Z 27006KT 18/06 A2998 RMK A01 T01820057  RH  044%=      5-min Rain = 0
KWE2 140232Z 27006KT 18/06 A2998 RMK A01 T01820057  RH  044%=      5-min Rain = 0
KWE2 140233Z 27006KT 18/06 A2998 RMK A01 T01820057  RH  044%=      5-min Rain = 0
KWE2 140234Z 27005KT 18/06 A2998 RMK A01 T01810056  RH  044%=      5-min Rain = 0
KWE2 140235Z 26005KT 18/06 A2998 RMK A01 T01810056  RH  044%=      5-min Rain = 0
KWE2 140236Z 26006KT 18/06 A2998 RMK A01 T01810056  RH  044%=      5-min Rain = 0
KWE2 140237Z 26006KT 18/06 A2998 RMK A01 T01820056  RH  044%=      5-min Rain = 0
KWE2 140238Z 26006KT 18/06 A2998 RMK A01 T01830057  RH  043%=      5-min Rain = 0
KWE2 140239Z 26006KT 18/06 A2998 RMK A01 T01840056  RH  043%=      5-min Rain = 0
KWE2 140240Z 25006KT 18/06 A2998 RMK A01 T01840055  RH  043%=      5-min Rain = 0
KWE2 140241Z 26006KT 19/05 A2998 RMK A01 T01850054  RH  042%=      5-min Rain = 0
KWE2 140242Z 25006KT 18/06 A2998 RMK A01 T01840056  RH  043%=      5-min Rain = 0
KWE2 140243Z 25006KT 18/06 A2998 RMK A01 T01830056  RH  043%=      5-min Rain = 0
KWE2 140244Z 25005KT 18/06 A2998 RMK A01 T01810056  RH  044%=      5-min Rain = 0
KWE2 140245Z 25005KT 18/06 A2998 RMK A01 T01810055  RH  044%=      5-min Rain = 0
KWE2 140246Z 25005KT 18/06 A2998 RMK A01 T01800055  RH  044%=      5-min Rain = 0
KWE2 140247Z 25006KT 18/06 A2998 RMK A01 T01790055  RH  044%=      5-min Rain = 0
KWE2 140248Z 25006KT 18/06 A2998 RMK A01 T01780055  RH  044%=      5-min Rain = 0
KWE2 140249Z 25005KT 18/06 A2998 RMK A01 T01780055  RH  044%=      5-min Rain = 0
KWE2 140250Z 24005KT 18/05 A2998 RMK A01 T01780054  RH  044%=      5-min Rain = 0
KWE2 140251Z 24005KT 18/05 A2998 RMK A01 T01780054  RH  044%=      5-min Rain = 0
KWE2 140252Z 24005KT 18/05 A2998 RMK A01 T01770054  RH  044%=      5-min Rain = 0
KWE2 140253Z 24005KT 18/05 A2998 RMK A01 T01770054  RH  044%=      5-min Rain = 0
KWE2 140254Z 24005KT 18/05 A2998 RMK A01 T01770054  RH  044%=      5-min Rain = 0
KWE2 140255Z 25005KT 18/05 A2999 RMK A01 T01770054  RH  044%=      5-min Rain = 0
KWE2 140256Z 25005KT 18/05 A2999 RMK A01 T01770054  RH  044%=      5-min Rain = 0
KWE2 140257Z 25005KT 18/05 A2999 RMK A01 T01770053  RH  044%=      5-min Rain = 0
KWE2 140258Z 25005KT 18/05 A2999 RMK A01 T01770053  RH  044%=      5-min Rain = 0
KWE2 140259Z 25005KT 18/05 A2999 RMK A01 T01770053  RH  044%=      5-min Rain = 0
KWE2 140300Z 25005KT 18/05 A2999 RMK A01 T01770052  RH  044%=      5-min Rain = 0
KWE2 140301Z 25005KT 18/05 A2999 RMK A01 T01780052  RH  044%=      5-min Rain = 0
KWE2 140302Z 25005KT 18/05 A2999 RMK A01 T01780052  RH  043%=      5-min Rain = 0
KWE2 140303Z 26005KT 18/05 A2999 RMK A01 T01780052  RH  044%=      5-min Rain = 0
KWE2 140304Z 26005KT 18/05 A2999 RMK A01 T01780052  RH  044%=      5-min Rain = 0
KWE2 140305Z 26005KT 18/05 A2999 RMK A01 T01780052  RH  044%=      5-min Rain = 0
KWE2 140306Z 26005KT 18/05 A2999 RMK A01 T01780053  RH  044%=      5-min Rain = 0
KWE2 140307Z 26004KT 18/05 A2999 RMK A01 T01780053  RH  044%=      5-min Rain = 0
KWE2 140308Z 26004KT 18/05 A2999 RMK A01 T01780054  RH  044%=      5-min Rain = 0
KWE2 140309Z 25004KT 18/06 A2999 RMK A01 T01770056  RH  045%=      5-min Rain = 0
KWE2 140310Z 26004KT 18/06 A2999 RMK A01 T01760056  RH  045%=      5-min Rain = 0
KWE2 140311Z 25004KT 18/06 A2999 RMK A01 T01750056  RH  046%=      5-min Rain = 0
KWE2 140312Z 25004KT 17/06 A2999 RMK A01 T01740058  RH  046%=      5-min Rain = 0
KWE2 140313Z 25004KT 17/06 A2999 RMK A01 T01730056  RH  046%=      5-min Rain = 0
KWE2 140314Z 25003KT 17/06 A2999 RMK A01 T01730056  RH  046%=      5-min Rain = 0
KWE2 140315Z 26002KT 17/06 A2999 RMK A01 T01720059  RH  048%=      5-min Rain = 0
KWE2 140316Z 25002KT 17/06 A2999 RMK A01 T01700058  RH  047%=      5-min Rain = 0
KWE2 140317Z 25003KT 17/06 A2999 RMK A01 T01700055  RH  046%=      5-min Rain = 0
KWE2 140318Z 25002KT 17/06 A2999 RMK A01 T01710056  RH  047%=      5-min Rain = 0
KWE2 140319Z 26002KT 17/06 A2999 RMK A01 T01710058  RH  047%=      5-min Rain = 0
KWE2 140320Z 26002KT 17/06 A2999 RMK A01 T01710061  RH  048%=      5-min Rain = 0
KWE2 140321Z 26002KT 17/06 A2999 RMK A01 T01710059  RH  048%=      5-min Rain = 0
KWE2 140322Z 26002KT 17/06 A2999 RMK A01 T01700056  RH  047%=      5-min Rain = 0
KWE2 140323Z 26002KT 17/06 A2999 RMK A01 T01710056  RH  047%=      5-min Rain = 0
KWE2 140324Z 26002KT 17/06 A2999 RMK A01 T01710062  RH  048%=      5-min Rain = 0
KWE2 140325Z 26002KT 17/06 A2999 RMK A01 T01710062  RH  049%=      5-min Rain = 0
KWE2 140326Z 26002KT 17/06 A2999 RMK A01 T01700061  RH  049%=      5-min Rain = 0
KWE2 140327Z 26002KT 17/06 A2999 RMK A01 T01700061  RH  049%=      5-min Rain = 0
KWE2 140328Z 26002KT 17/06 A2999 RMK A01 T01690059  RH  048%=      5-min Rain = 0
KWE2 140329Z 26002KT 17/06 A2999 RMK A01 T01690059  RH  048%=      5-min Rain = 0
KWE2 140330Z 26002KT 17/06 A2999 RMK A01 T01690060  RH  048%=      5-min Rain = 0
KWE2 140331Z 27002KT 17/06 A2999 RMK A01 T01680058  RH  048%=      5-min Rain = 0
KWE2 140332Z 27002KT 17/06 A2999 RMK A01 T01680059  RH  049%=      5-min Rain = 0
KWE2 140333Z 26002KT 17/06 A2999 RMK A01 T01670058  RH  049%=      5-min Rain = 0
KWE2 140334Z 26002KT 17/06 A2999 RMK A01 T01670058  RH  049%=      5-min Rain = 0
KWE2 140335Z 26002KT 17/06 A2999 RMK A01 T01670059  RH  049%=      5-min Rain = 0
KWE2 140336Z 25001KT 17/06 A2999 RMK A01 T01670060  RH  049%=      5-min Rain = 0
KWE2 140337Z 17001KT 17/06 A2999 RMK A01 T01660061  RH  050%=      5-min Rain = 0
KWE2 140338Z 13006KT 17/06 A2999 RMK A01 T01660062  RH  050%=      5-min Rain = 0
KWE2 140339Z 13009KT 17/06 A2999 RMK A01 T01650056  RH  048%=      5-min Rain = 0
KWE2 140340Z 13007KT 17/05 A30 RMK A01 T01660053  RH  047%=      5-min Rain = 0
KWE2 140341Z 15006KT 17/05 A30 RMK A01 T01680053  RH  046%=      5-min Rain = 0
KWE2 140342Z 15006KT 17/05 A30 RMK A01 T01700053  RH  046%=      5-min Rain = 0
KWE2 140343Z 14008KT 17/05 A30 RMK A01 T01710049  RH  044%=      5-min Rain = 0
KWE2 140344Z 14009KT 18/04 A30 RMK A01 T01770044  RH  041%=      5-min Rain = 0
KWE2 140345Z 15008KT 18/04 A30 RMK A01 T01830043  RH  039%=      5-min Rain = 0
KWE2 140346Z 15009KT 19/04 A30 RMK A01 T01880043  RH  038%=      5-min Rain = 0
KWE2 140347Z 15008KT 19/04 A30 RMK A01 T01900043  RH  038%=      5-min Rain = 0
KWE2 140348Z 16007KT 19/04 A30 RMK A01 T01920043  RH  037%=      5-min Rain = 0
KWE2 140349Z 16007KT 19/04 A30 RMK A01 T01940044  RH  037%=      5-min Rain = 0
KWE2 140350Z 16006KT 19/04 A30 RMK A01 T01930044  RH  037%=      5-min Rain = 0
KWE2 140351Z 17005KT 19/04 A30 RMK A01 T01930044  RH  037%=      5-min Rain = 0
KWE2 140352Z 16004KT 19/04 A30 RMK A01 T01920044  RH  038%=      5-min Rain = 0
KWE2 140353Z 16004KT 19/04 A30 RMK A01 T01920044  RH  038%=      5-min Rain = 0
KWE2 140354Z 15004KT 19/04 A30 RMK A01 T01910044  RH  038%=      5-min Rain = 0
KWE2 140355Z 15004KT 19/04 A30 RMK A01 T01910044  RH  038%=      5-min Rain = 0
KWE2 140356Z 16004KT 19/05 A30 RMK A01 T01900045  RH  038%=      5-min Rain = 0
KWE2 140357Z 16004KT 19/05 A30 RMK A01 T01900046  RH  039%=      5-min Rain = 0
KWE2 140358Z 17003KT 19/05 A30 RMK A01 T01880046  RH  039%=      5-min Rain = 0
KWE2 140359Z 16003KT 19/04 A30 RMK A01 T01870044  RH  039%=      5-min Rain = 0
KWE2 140400Z 15004KT 19/05 A30 RMK A01 T01860046  RH  039%=      5-min Rain = 0
KWE2 140401Z 15005KT 19/05 A30 RMK A01 T01850047  RH  040%=      5-min Rain = 0
KWE2 140402Z 15004KT 18/05 A30 RMK A01 T01830047  RH  040%=      5-min Rain = 0
KWE2 140403Z 15004KT 18/05 A30 RMK A01 T01820047  RH  041%=      5-min Rain = 0
KWE2 140404Z 15005KT 18/05 A30 RMK A01 T01820047  RH  041%=      5-min Rain = 0
KWE2 140405Z 14005KT 18/05 A30 RMK A01 T01800047  RH  041%=      5-min Rain = 0
KWE2 140406Z 15005KT 18/05 A30 RMK A01 T01800047  RH  042%=      5-min Rain = 0
KWE2 140407Z 15005KT 18/05 A30 RMK A01 T01790048  RH  042%=      5-min Rain = 0
KWE2 140408Z 15006KT 18/05 A30 RMK A01 T01770048  RH  042%=      5-min Rain = 0
KWE2 140409Z 15006KT 18/05 A30 RMK A01 T01760048  RH  043%=      5-min Rain = 0
KWE2 140410Z 16006KT 18/05 A30 RMK A01 T01760048  RH  043%=      5-min Rain = 0
KWE2 140411Z 16006KT 18/05 A30 RMK A01 T01760045  RH  042%=      5-min Rain = 0
KWE2 140412Z 17007KT 18/05 A30 RMK A01 T01780045  RH  041%=      5-min Rain = 0
KWE2 140413Z 16007KT 18/05 A30 RMK A01 T01790045  RH  041%=      5-min Rain = 0
KWE2 140414Z 16007KT 18/05 A30 RMK A01 T01810045  RH  041%=      5-min Rain = 0
KWE2 140415Z 17007KT 18/04 A30 RMK A01 T01820044  RH  040%=      5-min Rain = 0
KWE2 140416Z 17007KT 18/05 A30 RMK A01 T01830045  RH  040%=      5-min Rain = 0
KWE2 140417Z 17007KT 18/04 A30 RMK A01 T01830044  RH  040%=      5-min Rain = 0
KWE2 140418Z 18007KT 18/04 A30 RMK A01 T01840044  RH  040%=      5-min Rain = 0
KWE2 140419Z 19007KT 18/04 A30 RMK A01 T01840044  RH  040%=      5-min Rain = 0
KWE2 140420Z 20006KT 18/05 A30 RMK A01 T01840045  RH  040%=      5-min Rain = 0
KWE2 140421Z 20006KT 19/05 A30 RMK A01 T01850045  RH  040%=      5-min Rain = 0
KWE2 140422Z 20006KT 19/05 A30 RMK A01 T01850045  RH  040%=      5-min Rain = 0
KWE2 140423Z 20006KT 18/05 A30 RMK A01 T01840046  RH  040%=      5-min Rain = 0
KWE2 140424Z 19006KT 18/05 A30 RMK A01 T01840046  RH  040%=      5-min Rain = 0
KWE2 140425Z 19006KT 18/05 A30 RMK A01 T01820045  RH  040%=      5-min Rain = 0
KWE2 140426Z 20006KT 18/05 A30 RMK A01 T01810046  RH  041%=      5-min Rain = 0
KWE2 140427Z 20006KT 18/05 A30 RMK A01 T01800046  RH  041%=      5-min Rain = 0
KWE2 140428Z 20006KT 18/05 A30 RMK A01 T01790046  RH  041%=      5-min Rain = 0
KWE2 140429Z 19006KT 18/05 A30 RMK A01 T01780046  RH  042%=      5-min Rain = 0
KWE2 140430Z 19006KT 18/05 A30 RMK A01 T01770046  RH  042%=      5-min Rain = 0
KWE2 140431Z 20006KT 18/05 A30 RMK A01 T01760046  RH  042%=      5-min Rain = 0
KWE2 140432Z 20006KT 18/05 A30 RMK A01 T01750047  RH  043%=      5-min Rain = 0
KWE2 140433Z 20006KT 17/05 A30 RMK A01 T01740047  RH  043%=      5-min Rain = 0
KWE2 140434Z 20005KT 17/05 A30 RMK A01 T01730047  RH  043%=      5-min Rain = 0
KWE2 140435Z 21005KT 17/05 A30 RMK A01 T01730048  RH  044%=      5-min Rain = 0
KWE2 140436Z 21005KT 17/05 A30 RMK A01 T01720048  RH  044%=      5-min Rain = 0
KWE2 140437Z 21005KT 17/05 A30 RMK A01 T01720048  RH  044%=      5-min Rain = 0
KWE2 140438Z 21005KT 17/05 A30 RMK A01 T01710048  RH  044%=      5-min Rain = 0
KWE2 140439Z 21004KT 17/05 A30 RMK A01 T01710048  RH  044%=      5-min Rain = 0
KWE2 140440Z 21004KT 17/05 A30 RMK A01 T01700048  RH  044%=      5-min Rain = 0
KWE2 140441Z 21003KT 17/05 A30 RMK A01 T01700049  RH  045%=      5-min Rain = 0
KWE2 140442Z 21004KT 17/05 A30 RMK A01 T01700049  RH  045%=      5-min Rain = 0
KWE2 140443Z 21003KT 17/05 A30 RMK A01 T01690048  RH  045%=      5-min Rain = 0
KWE2 140444Z 20003KT 17/05 A30 RMK A01 T01690048  RH  045%=      5-min Rain = 0
KWE2 140445Z 21003KT 17/05 A30 RMK A01 T01690048  RH  045%=      5-min Rain = 0
KWE2 140446Z 21003KT 17/05 A30 RMK A01 T01680048  RH  045%=      5-min Rain = 0
KWE2 140447Z 21003KT 17/05 A30 RMK A01 T01680048  RH  045%=      5-min Rain = 0
KWE2 140448Z 22003KT 17/05 A30 RMK A01 T01670048  RH  045%=      5-min Rain = 0
KWE2 140449Z 22003KT 17/05 A30 RMK A01 T01670048  RH  045%=      5-min Rain = 0
KWE2 140450Z 22004KT 17/05 A30 RMK A01 T01670049  RH  046%=      5-min Rain = 0
KWE2 140451Z 23004KT 17/05 A30 RMK A01 T01670049  RH  046%=      5-min Rain = 0
KWE2 140452Z 23004KT 17/05 A30 RMK A01 T01660050  RH  046%=      5-min Rain = 0
KWE2 140453Z 23004KT 17/05 A30 RMK A01 T01650050  RH  046%=      5-min Rain = 0
KWE2 140454Z 22004KT 17/05 A30 RMK A01 T01650051  RH  047%=      5-min Rain = 0
KWE2 140455Z 22004KT 17/05 A30 RMK A01 T01650051  RH  047%=      5-min Rain = 0
KWE2 140456Z 22004KT 17/05 A30 RMK A01 T01650052  RH  047%=      5-min Rain = 0
KWE2 140457Z 22004KT 17/05 A30 RMK A01 T01650053  RH  047%=      5-min Rain = 0
KWE2 140458Z 21004KT 17/05 A30 RMK A01 T01650053  RH  048%=      5-min Rain = 0
KWE2 140459Z 21004KT 17/05 A30 RMK A01 T01650054  RH  048%=      5-min Rain = 0

Page generated in 0.0714 seconds.